<?xml version="1.0" encoding="UTF-8" standalone="yes"?>
<gpx xmlns="http://www.topografix.com/GPX/1/1" creator="www.gps-tour.info" version="1.1" xmlns:xsi="http://www.w3.org/2001/XMLSchema-instance" xsi:schemaLocation="http://www.topografix.com/GPX/1/1 http://www.topografix.com/GPX/1/1/gpx.xsd">
  <metadata>
    <author>
      <name>Eckehardt Klemm</name>
    </author>
    <link href="www.gps-tour.info/de/touren/detail.30223.html">
      <text>Teneriffa - Los Silos nach Erjos (Rother 17) on www.gps-tour.info</text>
    </link>
    <time>2009-09-22T10:33:33Z</time>
    <bounds minlat="28.322087" minlon="-16.8243032" maxlat="28.3645396" maxlon="-16.8051389"/>
  </metadata><wpt lat="28.3278281" lon="-16.8047163">
    <ele>0</ele>
    <name>Bus Erjos</name>
    <sym>Waypoint</sym>
  </wpt><wpt lat="28.3645897" lon="-16.8169034">
    <ele>0</ele>
    <name>Bus Los Silos</name>
    <sym>Waypoint</sym>
  </wpt><trk>
    <name>Teneriffa - Los Silos nach Erjos (Rother 17)</name>
    <trkseg><trkpt lat="28.3644986" lon="-16.8168372">
        <ele>167.9</ele>
        <time>2009-09-22T10:33:33Z</time>
      </trkpt><trkpt lat="28.3644932" lon="-16.8168514">
        <ele>170.8</ele>
        <time>2009-09-22T10:33:34Z</time>
      </trkpt><trkpt lat="28.3644519" lon="-16.8168661">
        <ele>170.3</ele>
        <time>2009-09-22T10:33:38Z</time>
      </trkpt><trkpt lat="28.3644022" lon="-16.816863">
        <ele>171.3</ele>
        <time>2009-09-22T10:33:43Z</time>
      </trkpt><trkpt lat="28.3643695" lon="-16.8168371">
        <ele>171.3</ele>
        <time>2009-09-22T10:33:47Z</time>
      </trkpt><trkpt lat="28.3642582" lon="-16.8167586">
        <ele>170.8</ele>
        <time>2009-09-22T10:34:00Z</time>
      </trkpt><trkpt lat="28.3641834" lon="-16.8167587">
        <ele>170.8</ele>
        <time>2009-09-22T10:34:08Z</time>
      </trkpt><trkpt lat="28.3641266" lon="-16.8167744">
        <ele>170.8</ele>
        <time>2009-09-22T10:34:14Z</time>
      </trkpt><trkpt lat="28.3637307" lon="-16.8165418">
        <ele>173.2</ele>
        <time>2009-09-22T10:34:58Z</time>
      </trkpt><trkpt lat="28.3636791" lon="-16.8164195">
        <ele>172.7</ele>
        <time>2009-09-22T10:35:10Z</time>
      </trkpt><trkpt lat="28.3635407" lon="-16.8164978">
        <ele>172.2</ele>
        <time>2009-09-22T10:35:26Z</time>
      </trkpt><trkpt lat="28.3635304" lon="-16.8164993">
        <ele>172.7</ele>
        <time>2009-09-22T10:35:27Z</time>
      </trkpt><trkpt lat="28.3634739" lon="-16.8165123">
        <ele>173.2</ele>
        <time>2009-09-22T10:35:33Z</time>
      </trkpt><trkpt lat="28.3633558" lon="-16.8165908">
        <ele>174.1</ele>
        <time>2009-09-22T10:35:47Z</time>
      </trkpt><trkpt lat="28.3632888" lon="-16.8166879">
        <ele>173.7</ele>
        <time>2009-09-22T10:35:57Z</time>
      </trkpt><trkpt lat="28.3632522" lon="-16.8167454">
        <ele>173.7</ele>
        <time>2009-09-22T10:36:04Z</time>
      </trkpt><trkpt lat="28.3632342" lon="-16.816759">
        <ele>174.6</ele>
        <time>2009-09-22T10:36:06Z</time>
      </trkpt><trkpt lat="28.3632015" lon="-16.8167393">
        <ele>175.6</ele>
        <time>2009-09-22T10:36:10Z</time>
      </trkpt><trkpt lat="28.3630953" lon="-16.8168422">
        <ele>176.5</ele>
        <time>2009-09-22T10:36:24Z</time>
      </trkpt><trkpt lat="28.3630068" lon="-16.8169578">
        <ele>178.5</ele>
        <time>2009-09-22T10:36:37Z</time>
      </trkpt><trkpt lat="28.3628881" lon="-16.8170862">
        <ele>179.9</ele>
        <time>2009-09-22T10:36:54Z</time>
      </trkpt><trkpt lat="28.3627746" lon="-16.8171603">
        <ele>181.3</ele>
        <time>2009-09-22T10:37:07Z</time>
      </trkpt><trkpt lat="28.3627378" lon="-16.8171768">
        <ele>180.9</ele>
        <time>2009-09-22T10:37:11Z</time>
      </trkpt><trkpt lat="28.3626575" lon="-16.8171769">
        <ele>182.8</ele>
        <time>2009-09-22T10:37:19Z</time>
      </trkpt><trkpt lat="28.3625731" lon="-16.8172041">
        <ele>184.7</ele>
        <time>2009-09-22T10:37:28Z</time>
      </trkpt><trkpt lat="28.3624342" lon="-16.8172266">
        <ele>184.7</ele>
        <time>2009-09-22T10:37:42Z</time>
      </trkpt><trkpt lat="28.3624066" lon="-16.8172483">
        <ele>185.7</ele>
        <time>2009-09-22T10:37:45Z</time>
      </trkpt><trkpt lat="28.3623356" lon="-16.8172819">
        <ele>187.6</ele>
        <time>2009-09-22T10:37:53Z</time>
      </trkpt><trkpt lat="28.3623446" lon="-16.8172276">
        <ele>188.1</ele>
        <time>2009-09-22T10:37:58Z</time>
      </trkpt><trkpt lat="28.3623312" lon="-16.8171684">
        <ele>185.2</ele>
        <time>2009-09-22T10:38:03Z</time>
      </trkpt><trkpt lat="28.3623074" lon="-16.8172074">
        <ele>187.1</ele>
        <time>2009-09-22T10:38:07Z</time>
      </trkpt><trkpt lat="28.3621792" lon="-16.8172607">
        <ele>187.6</ele>
        <time>2009-09-22T10:38:21Z</time>
      </trkpt><trkpt lat="28.3621699" lon="-16.8172613">
        <ele>187.6</ele>
        <time>2009-09-22T10:38:22Z</time>
      </trkpt><trkpt lat="28.3620644" lon="-16.8172478">
        <ele>189.5</ele>
        <time>2009-09-22T10:38:33Z</time>
      </trkpt><trkpt lat="28.3619696" lon="-16.8171629">
        <ele>190.5</ele>
        <time>2009-09-22T10:38:45Z</time>
      </trkpt><trkpt lat="28.3619624" lon="-16.8171622">
        <ele>190.5</ele>
        <time>2009-09-22T10:38:45Z</time>
      </trkpt><trkpt lat="28.3618047" lon="-16.8171272">
        <ele>193.4</ele>
        <time>2009-09-22T10:39:02Z</time>
      </trkpt><trkpt lat="28.3617451" lon="-16.8171365">
        <ele>193.8</ele>
        <time>2009-09-22T10:39:08Z</time>
      </trkpt><trkpt lat="28.3616705" lon="-16.8171181">
        <ele>195.3</ele>
        <time>2009-09-22T10:39:15Z</time>
      </trkpt><trkpt lat="28.3616567" lon="-16.8171303">
        <ele>196.2</ele>
        <time>2009-09-22T10:39:17Z</time>
      </trkpt><trkpt lat="28.361538" lon="-16.8172287">
        <ele>198.2</ele>
        <time>2009-09-22T10:39:32Z</time>
      </trkpt><trkpt lat="28.361421" lon="-16.8173231">
        <ele>199.6</ele>
        <time>2009-09-22T10:39:46Z</time>
      </trkpt><trkpt lat="28.3613107" lon="-16.817395">
        <ele>201.1</ele>
        <time>2009-09-22T10:39:59Z</time>
      </trkpt><trkpt lat="28.3611813" lon="-16.8174313">
        <ele>203.5</ele>
        <time>2009-09-22T10:40:12Z</time>
      </trkpt><trkpt lat="28.3610859" lon="-16.8174971">
        <ele>204.9</ele>
        <time>2009-09-22T10:40:23Z</time>
      </trkpt><trkpt lat="28.3609836" lon="-16.817608">
        <ele>208.3</ele>
        <time>2009-09-22T10:40:38Z</time>
      </trkpt><trkpt lat="28.3608911" lon="-16.8177027">
        <ele>209.7</ele>
        <time>2009-09-22T10:40:50Z</time>
      </trkpt><trkpt lat="28.3608083" lon="-16.8177493">
        <ele>212.1</ele>
        <time>2009-09-22T10:40:59Z</time>
      </trkpt><trkpt lat="28.3607412" lon="-16.8178037">
        <ele>213.1</ele>
        <time>2009-09-22T10:41:08Z</time>
      </trkpt><trkpt lat="28.3606828" lon="-16.8179413">
        <ele>214.5</ele>
        <time>2009-09-22T10:41:21Z</time>
      </trkpt><trkpt lat="28.3606596" lon="-16.8180915">
        <ele>216.4</ele>
        <time>2009-09-22T10:41:35Z</time>
      </trkpt><trkpt lat="28.3605176" lon="-16.8181614">
        <ele>217.4</ele>
        <time>2009-09-22T10:41:50Z</time>
      </trkpt><trkpt lat="28.3604026" lon="-16.8181892">
        <ele>218.4</ele>
        <time>2009-09-22T10:42:02Z</time>
      </trkpt><trkpt lat="28.3603769" lon="-16.8181856">
        <ele>217.9</ele>
        <time>2009-09-22T10:42:05Z</time>
      </trkpt><trkpt lat="28.3602494" lon="-16.8182099">
        <ele>221.2</ele>
        <time>2009-09-22T10:42:18Z</time>
      </trkpt><trkpt lat="28.3601223" lon="-16.8182151">
        <ele>223.2</ele>
        <time>2009-09-22T10:42:30Z</time>
      </trkpt><trkpt lat="28.3600296" lon="-16.8182056">
        <ele>223.6</ele>
        <time>2009-09-22T10:42:40Z</time>
      </trkpt><trkpt lat="28.3599626" lon="-16.8181693">
        <ele>225.1</ele>
        <time>2009-09-22T10:42:47Z</time>
      </trkpt><trkpt lat="28.3598727" lon="-16.8182051">
        <ele>226</ele>
        <time>2009-09-22T10:42:57Z</time>
      </trkpt><trkpt lat="28.3597821" lon="-16.8182194">
        <ele>228</ele>
        <time>2009-09-22T10:43:06Z</time>
      </trkpt><trkpt lat="28.3596826" lon="-16.8182145">
        <ele>229.9</ele>
        <time>2009-09-22T10:43:16Z</time>
      </trkpt><trkpt lat="28.3596038" lon="-16.8182497">
        <ele>230.9</ele>
        <time>2009-09-22T10:43:24Z</time>
      </trkpt><trkpt lat="28.3595268" lon="-16.8182865">
        <ele>231.8</ele>
        <time>2009-09-22T10:43:33Z</time>
      </trkpt><trkpt lat="28.3594491" lon="-16.8183236">
        <ele>233.3</ele>
        <time>2009-09-22T10:43:41Z</time>
      </trkpt><trkpt lat="28.3593882" lon="-16.8183624">
        <ele>235.7</ele>
        <time>2009-09-22T10:43:48Z</time>
      </trkpt><trkpt lat="28.3592894" lon="-16.8183714">
        <ele>238.1</ele>
        <time>2009-09-22T10:43:58Z</time>
      </trkpt><trkpt lat="28.3591934" lon="-16.8183808">
        <ele>239.5</ele>
        <time>2009-09-22T10:44:08Z</time>
      </trkpt><trkpt lat="28.3591157" lon="-16.818403">
        <ele>241.4</ele>
        <time>2009-09-22T10:44:16Z</time>
      </trkpt><trkpt lat="28.3590408" lon="-16.8184211">
        <ele>241.9</ele>
        <time>2009-09-22T10:44:24Z</time>
      </trkpt><trkpt lat="28.3589556" lon="-16.8183947">
        <ele>243.8</ele>
        <time>2009-09-22T10:44:32Z</time>
      </trkpt><trkpt lat="28.3588388" lon="-16.8184205">
        <ele>245.8</ele>
        <time>2009-09-22T10:44:44Z</time>
      </trkpt><trkpt lat="28.3584128" lon="-16.8184893">
        <ele>248.6</ele>
        <time>2009-09-22T10:45:28Z</time>
      </trkpt><trkpt lat="28.3581917" lon="-16.8185961">
        <ele>251.5</ele>
        <time>2009-09-22T10:45:52Z</time>
      </trkpt><trkpt lat="28.3579954" lon="-16.8185516">
        <ele>253.9</ele>
        <time>2009-09-22T10:46:12Z</time>
      </trkpt><trkpt lat="28.3578912" lon="-16.8185359">
        <ele>256.8</ele>
        <time>2009-09-22T10:46:22Z</time>
      </trkpt><trkpt lat="28.357742" lon="-16.8183648">
        <ele>259.2</ele>
        <time>2009-09-22T10:46:44Z</time>
      </trkpt><trkpt lat="28.3577318" lon="-16.8183149">
        <ele>259.2</ele>
        <time>2009-09-22T10:46:48Z</time>
      </trkpt><trkpt lat="28.3577767" lon="-16.8182367">
        <ele>261.1</ele>
        <time>2009-09-22T10:46:56Z</time>
      </trkpt><trkpt lat="28.3578062" lon="-16.8182108">
        <ele>263.1</ele>
        <time>2009-09-22T10:47:00Z</time>
      </trkpt><trkpt lat="28.3580042" lon="-16.8181534">
        <ele>263.1</ele>
        <time>2009-09-22T10:47:21Z</time>
      </trkpt><trkpt lat="28.3582736" lon="-16.8180882">
        <ele>264</ele>
        <time>2009-09-22T10:47:48Z</time>
      </trkpt><trkpt lat="28.3583787" lon="-16.8180711">
        <ele>267.4</ele>
        <time>2009-09-22T10:47:59Z</time>
      </trkpt><trkpt lat="28.3582915" lon="-16.8180725">
        <ele>270.7</ele>
        <time>2009-09-22T10:48:08Z</time>
      </trkpt><trkpt lat="28.3582295" lon="-16.8180459">
        <ele>273.2</ele>
        <time>2009-09-22T10:48:14Z</time>
      </trkpt><trkpt lat="28.3581415" lon="-16.8180532">
        <ele>276.5</ele>
        <time>2009-09-22T10:48:23Z</time>
      </trkpt><trkpt lat="28.3580296" lon="-16.8180542">
        <ele>279.9</ele>
        <time>2009-09-22T10:48:34Z</time>
      </trkpt><trkpt lat="28.3579214" lon="-16.8180425">
        <ele>282.8</ele>
        <time>2009-09-22T10:48:45Z</time>
      </trkpt><trkpt lat="28.3577345" lon="-16.8180833">
        <ele>283.7</ele>
        <time>2009-09-22T10:49:04Z</time>
      </trkpt><trkpt lat="28.3573001" lon="-16.8180782">
        <ele>287.1</ele>
        <time>2009-09-22T10:49:48Z</time>
      </trkpt><trkpt lat="28.3572246" lon="-16.8179908">
        <ele>290.5</ele>
        <time>2009-09-22T10:49:59Z</time>
      </trkpt><trkpt lat="28.3573982" lon="-16.8179591">
        <ele>292.4</ele>
        <time>2009-09-22T10:50:17Z</time>
      </trkpt><trkpt lat="28.3575544" lon="-16.8178182">
        <ele>294.8</ele>
        <time>2009-09-22T10:50:37Z</time>
      </trkpt><trkpt lat="28.3572543" lon="-16.8178376">
        <ele>296.7</ele>
        <time>2009-09-22T10:51:07Z</time>
      </trkpt><trkpt lat="28.3570005" lon="-16.8179359">
        <ele>297.7</ele>
        <time>2009-09-22T10:51:34Z</time>
      </trkpt><trkpt lat="28.3568911" lon="-16.8179796">
        <ele>299.1</ele>
        <time>2009-09-22T10:51:45Z</time>
      </trkpt><trkpt lat="28.3566795" lon="-16.8181692">
        <ele>299.1</ele>
        <time>2009-09-22T10:52:12Z</time>
      </trkpt><trkpt lat="28.3566698" lon="-16.818175">
        <ele>299.1</ele>
        <time>2009-09-22T10:52:13Z</time>
      </trkpt><trkpt lat="28.3565994" lon="-16.8182304">
        <ele>299.1</ele>
        <time>2009-09-22T10:52:22Z</time>
      </trkpt><trkpt lat="28.3564693" lon="-16.8182973">
        <ele>299.1</ele>
        <time>2009-09-22T10:52:36Z</time>
      </trkpt><trkpt lat="28.3563559" lon="-16.8183067">
        <ele>298.1</ele>
        <time>2009-09-22T10:52:48Z</time>
      </trkpt><trkpt lat="28.3563072" lon="-16.8183094">
        <ele>299.6</ele>
        <time>2009-09-22T10:52:53Z</time>
      </trkpt><trkpt lat="28.3562461" lon="-16.8182284">
        <ele>301</ele>
        <time>2009-09-22T10:53:02Z</time>
      </trkpt><trkpt lat="28.3561744" lon="-16.8181953">
        <ele>304.4</ele>
        <time>2009-09-22T10:53:10Z</time>
      </trkpt><trkpt lat="28.3560897" lon="-16.8181823">
        <ele>307.3</ele>
        <time>2009-09-22T10:53:18Z</time>
      </trkpt><trkpt lat="28.3560389" lon="-16.8181362">
        <ele>309.2</ele>
        <time>2009-09-22T10:53:25Z</time>
      </trkpt><trkpt lat="28.355899" lon="-16.8180658">
        <ele>312.6</ele>
        <time>2009-09-22T10:53:40Z</time>
      </trkpt><trkpt lat="28.3558082" lon="-16.8180037">
        <ele>315.9</ele>
        <time>2009-09-22T10:53:51Z</time>
      </trkpt><trkpt lat="28.3556535" lon="-16.8179138">
        <ele>318.8</ele>
        <time>2009-09-22T10:54:08Z</time>
      </trkpt><trkpt lat="28.355553" lon="-16.8179067">
        <ele>321.7</ele>
        <time>2009-09-22T10:54:19Z</time>
      </trkpt><trkpt lat="28.3554428" lon="-16.8179259">
        <ele>325.1</ele>
        <time>2009-09-22T10:54:30Z</time>
      </trkpt><trkpt lat="28.3553225" lon="-16.8179408">
        <ele>328.4</ele>
        <time>2009-09-22T10:54:42Z</time>
      </trkpt><trkpt lat="28.3552526" lon="-16.8179516">
        <ele>331.3</ele>
        <time>2009-09-22T10:54:49Z</time>
      </trkpt><trkpt lat="28.355176" lon="-16.8179679">
        <ele>334.7</ele>
        <time>2009-09-22T10:54:57Z</time>
      </trkpt><trkpt lat="28.3550278" lon="-16.8180461">
        <ele>337.6</ele>
        <time>2009-09-22T10:55:13Z</time>
      </trkpt><trkpt lat="28.3549396" lon="-16.8180918">
        <ele>340.4</ele>
        <time>2009-09-22T10:55:23Z</time>
      </trkpt><trkpt lat="28.354843" lon="-16.8181358">
        <ele>343.8</ele>
        <time>2009-09-22T10:55:33Z</time>
      </trkpt><trkpt lat="28.3547491" lon="-16.8181817">
        <ele>345.7</ele>
        <time>2009-09-22T10:55:44Z</time>
      </trkpt><trkpt lat="28.3546994" lon="-16.8182814">
        <ele>347.2</ele>
        <time>2009-09-22T10:55:54Z</time>
      </trkpt><trkpt lat="28.35457" lon="-16.8183243">
        <ele>348.6</ele>
        <time>2009-09-22T10:56:07Z</time>
      </trkpt><trkpt lat="28.3544859" lon="-16.8183014">
        <ele>350.5</ele>
        <time>2009-09-22T10:56:16Z</time>
      </trkpt><trkpt lat="28.3543757" lon="-16.8183015">
        <ele>351.5</ele>
        <time>2009-09-22T10:56:27Z</time>
      </trkpt><trkpt lat="28.3542418" lon="-16.8182922">
        <ele>353.4</ele>
        <time>2009-09-22T10:56:40Z</time>
      </trkpt><trkpt lat="28.3541957" lon="-16.8182731">
        <ele>356.3</ele>
        <time>2009-09-22T10:56:45Z</time>
      </trkpt><trkpt lat="28.3543223" lon="-16.8183352">
        <ele>357.3</ele>
        <time>2009-09-22T10:56:59Z</time>
      </trkpt><trkpt lat="28.354407" lon="-16.8181663">
        <ele>359.2</ele>
        <time>2009-09-22T10:57:16Z</time>
      </trkpt><trkpt lat="28.3543408" lon="-16.8181674">
        <ele>361.6</ele>
        <time>2009-09-22T10:57:23Z</time>
      </trkpt><trkpt lat="28.3542804" lon="-16.8181311">
        <ele>363.5</ele>
        <time>2009-09-22T10:57:30Z</time>
      </trkpt><trkpt lat="28.3542949" lon="-16.8180884">
        <ele>362.1</ele>
        <time>2009-09-22T10:57:34Z</time>
      </trkpt><trkpt lat="28.3543056" lon="-16.8181062">
        <ele>360.2</ele>
        <time>2009-09-22T10:57:36Z</time>
      </trkpt><trkpt lat="28.3543148" lon="-16.8181089">
        <ele>359.2</ele>
        <time>2009-09-22T10:57:37Z</time>
      </trkpt><trkpt lat="28.3543125" lon="-16.8181476">
        <ele>358.7</ele>
        <time>2009-09-22T10:57:40Z</time>
      </trkpt><trkpt lat="28.3542894" lon="-16.8181275">
        <ele>357.3</ele>
        <time>2009-09-22T10:57:43Z</time>
      </trkpt><trkpt lat="28.3542752" lon="-16.8180844">
        <ele>357.3</ele>
        <time>2009-09-22T10:57:47Z</time>
      </trkpt><trkpt lat="28.35426" lon="-16.8181083">
        <ele>356.8</ele>
        <time>2009-09-22T10:57:50Z</time>
      </trkpt><trkpt lat="28.3543145" lon="-16.8181334">
        <ele>357.3</ele>
        <time>2009-09-22T10:57:56Z</time>
      </trkpt><trkpt lat="28.3543322" lon="-16.8181593">
        <ele>358.2</ele>
        <time>2009-09-22T10:57:59Z</time>
      </trkpt><trkpt lat="28.3544181" lon="-16.8182072">
        <ele>359.2</ele>
        <time>2009-09-22T10:58:08Z</time>
      </trkpt><trkpt lat="28.3545204" lon="-16.8182916">
        <ele>360.6</ele>
        <time>2009-09-22T10:58:21Z</time>
      </trkpt><trkpt lat="28.3544875" lon="-16.8183459">
        <ele>362.6</ele>
        <time>2009-09-22T10:58:27Z</time>
      </trkpt><trkpt lat="28.3543562" lon="-16.8183691">
        <ele>364.5</ele>
        <time>2009-09-22T10:58:40Z</time>
      </trkpt><trkpt lat="28.3542392" lon="-16.8183902">
        <ele>367.8</ele>
        <time>2009-09-22T10:58:52Z</time>
      </trkpt><trkpt lat="28.3541476" lon="-16.8184096">
        <ele>369.3</ele>
        <time>2009-09-22T10:59:01Z</time>
      </trkpt><trkpt lat="28.3540406" lon="-16.8184144">
        <ele>371.2</ele>
        <time>2009-09-22T10:59:12Z</time>
      </trkpt><trkpt lat="28.3539382" lon="-16.8184062">
        <ele>372.6</ele>
        <time>2009-09-22T10:59:22Z</time>
      </trkpt><trkpt lat="28.3538296" lon="-16.8184264">
        <ele>373.6</ele>
        <time>2009-09-22T10:59:33Z</time>
      </trkpt><trkpt lat="28.3536772" lon="-16.8184144">
        <ele>376</ele>
        <time>2009-09-22T10:59:49Z</time>
      </trkpt><trkpt lat="28.3535249" lon="-16.8184653">
        <ele>378.9</ele>
        <time>2009-09-22T11:00:05Z</time>
      </trkpt><trkpt lat="28.3534099" lon="-16.818505">
        <ele>381.3</ele>
        <time>2009-09-22T11:00:17Z</time>
      </trkpt><trkpt lat="28.3532727" lon="-16.8185644">
        <ele>383.2</ele>
        <time>2009-09-22T11:00:32Z</time>
      </trkpt><trkpt lat="28.3531972" lon="-16.8185832">
        <ele>386.1</ele>
        <time>2009-09-22T11:00:39Z</time>
      </trkpt><trkpt lat="28.3531205" lon="-16.8186122">
        <ele>389</ele>
        <time>2009-09-22T11:00:47Z</time>
      </trkpt><trkpt lat="28.3530328" lon="-16.8186206">
        <ele>390.4</ele>
        <time>2009-09-22T11:00:56Z</time>
      </trkpt><trkpt lat="28.3529904" lon="-16.8187967">
        <ele>391.9</ele>
        <time>2009-09-22T11:01:12Z</time>
      </trkpt><trkpt lat="28.3528936" lon="-16.8187744">
        <ele>393.8</ele>
        <time>2009-09-22T11:01:22Z</time>
      </trkpt><trkpt lat="28.3527957" lon="-16.818779">
        <ele>396.7</ele>
        <time>2009-09-22T11:01:32Z</time>
      </trkpt><trkpt lat="28.3526708" lon="-16.818806">
        <ele>398.6</ele>
        <time>2009-09-22T11:01:45Z</time>
      </trkpt><trkpt lat="28.3526008" lon="-16.8188749">
        <ele>399.6</ele>
        <time>2009-09-22T11:01:54Z</time>
      </trkpt><trkpt lat="28.3525667" lon="-16.8188858">
        <ele>401.5</ele>
        <time>2009-09-22T11:01:58Z</time>
      </trkpt><trkpt lat="28.3524798" lon="-16.818965">
        <ele>403.4</ele>
        <time>2009-09-22T11:02:09Z</time>
      </trkpt><trkpt lat="28.3523574" lon="-16.8190702">
        <ele>405.8</ele>
        <time>2009-09-22T11:02:24Z</time>
      </trkpt><trkpt lat="28.3522543" lon="-16.8191401">
        <ele>408.2</ele>
        <time>2009-09-22T11:02:36Z</time>
      </trkpt><trkpt lat="28.3521471" lon="-16.8192012">
        <ele>410.1</ele>
        <time>2009-09-22T11:02:48Z</time>
      </trkpt><trkpt lat="28.3520368" lon="-16.8192238">
        <ele>413.5</ele>
        <time>2009-09-22T11:03:00Z</time>
      </trkpt><trkpt lat="28.3520004" lon="-16.8192187">
        <ele>414</ele>
        <time>2009-09-22T11:03:03Z</time>
      </trkpt><trkpt lat="28.3519017" lon="-16.8192462">
        <ele>415.4</ele>
        <time>2009-09-22T11:03:14Z</time>
      </trkpt><trkpt lat="28.3518455" lon="-16.8192867">
        <ele>418.3</ele>
        <time>2009-09-22T11:03:20Z</time>
      </trkpt><trkpt lat="28.3517814" lon="-16.8193902">
        <ele>420.7</ele>
        <time>2009-09-22T11:03:31Z</time>
      </trkpt><trkpt lat="28.3517059" lon="-16.8195012">
        <ele>422.2</ele>
        <time>2009-09-22T11:03:44Z</time>
      </trkpt><trkpt lat="28.3516457" lon="-16.8196466">
        <ele>425.5</ele>
        <time>2009-09-22T11:03:58Z</time>
      </trkpt><trkpt lat="28.351586" lon="-16.8197515">
        <ele>428.4</ele>
        <time>2009-09-22T11:04:09Z</time>
      </trkpt><trkpt lat="28.3515771" lon="-16.8197565">
        <ele>428.9</ele>
        <time>2009-09-22T11:04:10Z</time>
      </trkpt><trkpt lat="28.3514576" lon="-16.8198341">
        <ele>431.3</ele>
        <time>2009-09-22T11:04:24Z</time>
      </trkpt><trkpt lat="28.3513463" lon="-16.8199017">
        <ele>433.2</ele>
        <time>2009-09-22T11:04:37Z</time>
      </trkpt><trkpt lat="28.3512395" lon="-16.8199457">
        <ele>436.1</ele>
        <time>2009-09-22T11:04:48Z</time>
      </trkpt><trkpt lat="28.3511327" lon="-16.8199739">
        <ele>438</ele>
        <time>2009-09-22T11:04:59Z</time>
      </trkpt><trkpt lat="28.351039" lon="-16.8199933">
        <ele>439.9</ele>
        <time>2009-09-22T11:05:09Z</time>
      </trkpt><trkpt lat="28.3509105" lon="-16.8200361">
        <ele>442.8</ele>
        <time>2009-09-22T11:05:22Z</time>
      </trkpt><trkpt lat="28.3508401" lon="-16.8201061">
        <ele>446.2</ele>
        <time>2009-09-22T11:05:31Z</time>
      </trkpt><trkpt lat="28.3507723" lon="-16.8201813">
        <ele>447.2</ele>
        <time>2009-09-22T11:05:41Z</time>
      </trkpt><trkpt lat="28.3506795" lon="-16.8202449">
        <ele>448.6</ele>
        <time>2009-09-22T11:05:52Z</time>
      </trkpt><trkpt lat="28.3505895" lon="-16.8203158">
        <ele>451.5</ele>
        <time>2009-09-22T11:06:03Z</time>
      </trkpt><trkpt lat="28.3504546" lon="-16.8203943">
        <ele>453.9</ele>
        <time>2009-09-22T11:06:18Z</time>
      </trkpt><trkpt lat="28.3503583" lon="-16.8204795">
        <ele>455.3</ele>
        <time>2009-09-22T11:06:30Z</time>
      </trkpt><trkpt lat="28.3502824" lon="-16.82053">
        <ele>457.2</ele>
        <time>2009-09-22T11:06:39Z</time>
      </trkpt><trkpt lat="28.3501831" lon="-16.820603">
        <ele>460.1</ele>
        <time>2009-09-22T11:06:51Z</time>
      </trkpt><trkpt lat="28.3501331" lon="-16.8205671">
        <ele>460.1</ele>
        <time>2009-09-22T11:06:57Z</time>
      </trkpt><trkpt lat="28.3501062" lon="-16.8204103">
        <ele>461.1</ele>
        <time>2009-09-22T11:07:11Z</time>
      </trkpt><trkpt lat="28.350092" lon="-16.8202357">
        <ele>462.1</ele>
        <time>2009-09-22T11:07:26Z</time>
      </trkpt><trkpt lat="28.3500854" lon="-16.8202192">
        <ele>462.1</ele>
        <time>2009-09-22T11:07:28Z</time>
      </trkpt><trkpt lat="28.3500812" lon="-16.8201592">
        <ele>462.5</ele>
        <time>2009-09-22T11:07:33Z</time>
      </trkpt><trkpt lat="28.3501248" lon="-16.8199606">
        <ele>464.9</ele>
        <time>2009-09-22T11:07:51Z</time>
      </trkpt><trkpt lat="28.3501418" lon="-16.8199005">
        <ele>464.9</ele>
        <time>2009-09-22T11:07:57Z</time>
      </trkpt><trkpt lat="28.3502419" lon="-16.819786">
        <ele>467.8</ele>
        <time>2009-09-22T11:08:11Z</time>
      </trkpt><trkpt lat="28.350184" lon="-16.819744">
        <ele>469.7</ele>
        <time>2009-09-22T11:08:18Z</time>
      </trkpt><trkpt lat="28.3500746" lon="-16.8197768">
        <ele>472.1</ele>
        <time>2009-09-22T11:08:30Z</time>
      </trkpt><trkpt lat="28.3500068" lon="-16.8198007">
        <ele>472.6</ele>
        <time>2009-09-22T11:08:37Z</time>
      </trkpt><trkpt lat="28.3499295" lon="-16.8198057">
        <ele>475</ele>
        <time>2009-09-22T11:08:44Z</time>
      </trkpt><trkpt lat="28.3498371" lon="-16.8198524">
        <ele>476.5</ele>
        <time>2009-09-22T11:08:55Z</time>
      </trkpt><trkpt lat="28.3498065" lon="-16.8198653">
        <ele>478.4</ele>
        <time>2009-09-22T11:08:58Z</time>
      </trkpt><trkpt lat="28.3497897" lon="-16.8199374">
        <ele>479.8</ele>
        <time>2009-09-22T11:09:04Z</time>
      </trkpt><trkpt lat="28.3497582" lon="-16.8199938">
        <ele>481.3</ele>
        <time>2009-09-22T11:09:10Z</time>
      </trkpt><trkpt lat="28.349658" lon="-16.8200772">
        <ele>483.7</ele>
        <time>2009-09-22T11:09:23Z</time>
      </trkpt><trkpt lat="28.3495662" lon="-16.8201482">
        <ele>484.2</ele>
        <time>2009-09-22T11:09:34Z</time>
      </trkpt><trkpt lat="28.3495031" lon="-16.82023">
        <ele>487.5</ele>
        <time>2009-09-22T11:09:44Z</time>
      </trkpt><trkpt lat="28.3494908" lon="-16.8202429">
        <ele>488.5</ele>
        <time>2009-09-22T11:09:45Z</time>
      </trkpt><trkpt lat="28.3494127" lon="-16.8203238">
        <ele>489.9</ele>
        <time>2009-09-22T11:09:56Z</time>
      </trkpt><trkpt lat="28.3493438" lon="-16.8203558">
        <ele>490.9</ele>
        <time>2009-09-22T11:10:03Z</time>
      </trkpt><trkpt lat="28.349353" lon="-16.8202605">
        <ele>493.3</ele>
        <time>2009-09-22T11:10:12Z</time>
      </trkpt><trkpt lat="28.3493533" lon="-16.8201264">
        <ele>494.7</ele>
        <time>2009-09-22T11:10:24Z</time>
      </trkpt><trkpt lat="28.3492457" lon="-16.8199659">
        <ele>495.7</ele>
        <time>2009-09-22T11:10:41Z</time>
      </trkpt><trkpt lat="28.3492043" lon="-16.819955">
        <ele>496.7</ele>
        <time>2009-09-22T11:10:46Z</time>
      </trkpt><trkpt lat="28.3491369" lon="-16.819926">
        <ele>497.6</ele>
        <time>2009-09-22T11:10:53Z</time>
      </trkpt><trkpt lat="28.3490919" lon="-16.8199077">
        <ele>500.5</ele>
        <time>2009-09-22T11:10:58Z</time>
      </trkpt><trkpt lat="28.3489907" lon="-16.8198657">
        <ele>502.4</ele>
        <time>2009-09-22T11:11:09Z</time>
      </trkpt><trkpt lat="28.3488211" lon="-16.819841">
        <ele>504.8</ele>
        <time>2009-09-22T11:11:26Z</time>
      </trkpt><trkpt lat="28.3486692" lon="-16.8198285">
        <ele>507.7</ele>
        <time>2009-09-22T11:11:41Z</time>
      </trkpt><trkpt lat="28.3486229" lon="-16.8198835">
        <ele>510.1</ele>
        <time>2009-09-22T11:11:48Z</time>
      </trkpt><trkpt lat="28.3485183" lon="-16.8199177">
        <ele>513.5</ele>
        <time>2009-09-22T11:11:59Z</time>
      </trkpt><trkpt lat="28.3484096" lon="-16.8198567">
        <ele>514.4</ele>
        <time>2009-09-22T11:12:11Z</time>
      </trkpt><trkpt lat="28.3483228" lon="-16.8197514">
        <ele>517.3</ele>
        <time>2009-09-22T11:12:24Z</time>
      </trkpt><trkpt lat="28.3482178" lon="-16.8196037">
        <ele>520.7</ele>
        <time>2009-09-22T11:12:40Z</time>
      </trkpt><trkpt lat="28.3480702" lon="-16.8195975">
        <ele>523.1</ele>
        <time>2009-09-22T11:12:55Z</time>
      </trkpt><trkpt lat="28.3480567" lon="-16.8196058">
        <ele>524.1</ele>
        <time>2009-09-22T11:12:57Z</time>
      </trkpt><trkpt lat="28.3479766" lon="-16.8196524">
        <ele>524.1</ele>
        <time>2009-09-22T11:13:06Z</time>
      </trkpt><trkpt lat="28.3478905" lon="-16.8197466">
        <ele>526</ele>
        <time>2009-09-22T11:13:18Z</time>
      </trkpt><trkpt lat="28.3477697" lon="-16.8198182">
        <ele>526.5</ele>
        <time>2009-09-22T11:13:31Z</time>
      </trkpt><trkpt lat="28.3476162" lon="-16.8198948">
        <ele>527.9</ele>
        <time>2009-09-22T11:13:48Z</time>
      </trkpt><trkpt lat="28.3474333" lon="-16.81992">
        <ele>528.9</ele>
        <time>2009-09-22T11:14:07Z</time>
      </trkpt><trkpt lat="28.3472337" lon="-16.8199617">
        <ele>529.3</ele>
        <time>2009-09-22T11:14:27Z</time>
      </trkpt><trkpt lat="28.3470196" lon="-16.820029">
        <ele>532.2</ele>
        <time>2009-09-22T11:14:49Z</time>
      </trkpt><trkpt lat="28.3468508" lon="-16.8200644">
        <ele>531.7</ele>
        <time>2009-09-22T11:15:07Z</time>
      </trkpt><trkpt lat="28.3466541" lon="-16.8200968">
        <ele>533.7</ele>
        <time>2009-09-22T11:15:27Z</time>
      </trkpt><trkpt lat="28.3464739" lon="-16.8200586">
        <ele>534.2</ele>
        <time>2009-09-22T11:15:45Z</time>
      </trkpt><trkpt lat="28.3462936" lon="-16.8200584">
        <ele>537.5</ele>
        <time>2009-09-22T11:16:03Z</time>
      </trkpt><trkpt lat="28.3462259" lon="-16.8199917">
        <ele>539.4</ele>
        <time>2009-09-22T11:16:12Z</time>
      </trkpt><trkpt lat="28.3461966" lon="-16.8199279">
        <ele>540.9</ele>
        <time>2009-09-22T11:16:18Z</time>
      </trkpt><trkpt lat="28.3460595" lon="-16.8198843">
        <ele>542.8</ele>
        <time>2009-09-22T11:16:33Z</time>
      </trkpt><trkpt lat="28.3458688" lon="-16.8198297">
        <ele>544.2</ele>
        <time>2009-09-22T11:16:53Z</time>
      </trkpt><trkpt lat="28.3457989" lon="-16.8197902">
        <ele>545.2</ele>
        <time>2009-09-22T11:17:00Z</time>
      </trkpt><trkpt lat="28.3457365" lon="-16.8197046">
        <ele>545.7</ele>
        <time>2009-09-22T11:17:10Z</time>
      </trkpt><trkpt lat="28.3455502" lon="-16.8196906">
        <ele>547.6</ele>
        <time>2009-09-22T11:17:29Z</time>
      </trkpt><trkpt lat="28.3454171" lon="-16.8197618">
        <ele>550</ele>
        <time>2009-09-22T11:17:44Z</time>
      </trkpt><trkpt lat="28.3453142" lon="-16.8198836">
        <ele>551.5</ele>
        <time>2009-09-22T11:17:59Z</time>
      </trkpt><trkpt lat="28.3452274" lon="-16.8198905">
        <ele>552.4</ele>
        <time>2009-09-22T11:18:07Z</time>
      </trkpt><trkpt lat="28.3451799" lon="-16.819869">
        <ele>552.4</ele>
        <time>2009-09-22T11:18:12Z</time>
      </trkpt><trkpt lat="28.3450607" lon="-16.8197058">
        <ele>554.8</ele>
        <time>2009-09-22T11:18:31Z</time>
      </trkpt><trkpt lat="28.3450007" lon="-16.8195483">
        <ele>556.3</ele>
        <time>2009-09-22T11:18:46Z</time>
      </trkpt><trkpt lat="28.3449913" lon="-16.8195412">
        <ele>556.7</ele>
        <time>2009-09-22T11:18:48Z</time>
      </trkpt><trkpt lat="28.3449961" lon="-16.8195109">
        <ele>557.7</ele>
        <time>2009-09-22T11:18:50Z</time>
      </trkpt><trkpt lat="28.3449602" lon="-16.8194872">
        <ele>558.7</ele>
        <time>2009-09-22T11:18:54Z</time>
      </trkpt><trkpt lat="28.3449305" lon="-16.8194706">
        <ele>559.6</ele>
        <time>2009-09-22T11:18:58Z</time>
      </trkpt><trkpt lat="28.3448104" lon="-16.8194199">
        <ele>563</ele>
        <time>2009-09-22T11:19:11Z</time>
      </trkpt><trkpt lat="28.3447161" lon="-16.8194397">
        <ele>565.9</ele>
        <time>2009-09-22T11:19:20Z</time>
      </trkpt><trkpt lat="28.3446759" lon="-16.8195188">
        <ele>568.8</ele>
        <time>2009-09-22T11:19:28Z</time>
      </trkpt><trkpt lat="28.3446619" lon="-16.8195385">
        <ele>568.8</ele>
        <time>2009-09-22T11:19:31Z</time>
      </trkpt><trkpt lat="28.3445443" lon="-16.8197208">
        <ele>570.7</ele>
        <time>2009-09-22T11:19:50Z</time>
      </trkpt><trkpt lat="28.3444418" lon="-16.8198745">
        <ele>571.2</ele>
        <time>2009-09-22T11:20:08Z</time>
      </trkpt><trkpt lat="28.3443431" lon="-16.8199985">
        <ele>574</ele>
        <time>2009-09-22T11:20:22Z</time>
      </trkpt><trkpt lat="28.3442143" lon="-16.8201383">
        <ele>575</ele>
        <time>2009-09-22T11:20:40Z</time>
      </trkpt><trkpt lat="28.3442039" lon="-16.8201674">
        <ele>575.5</ele>
        <time>2009-09-22T11:20:43Z</time>
      </trkpt><trkpt lat="28.3441791" lon="-16.8201744">
        <ele>575.5</ele>
        <time>2009-09-22T11:20:45Z</time>
      </trkpt><trkpt lat="28.3442558" lon="-16.8202647">
        <ele>574.5</ele>
        <time>2009-09-22T11:20:57Z</time>
      </trkpt><trkpt lat="28.3442519" lon="-16.8202925">
        <ele>571.6</ele>
        <time>2009-09-22T11:20:59Z</time>
      </trkpt><trkpt lat="28.3442164" lon="-16.8203445">
        <ele>572.1</ele>
        <time>2009-09-22T11:21:05Z</time>
      </trkpt><trkpt lat="28.3442107" lon="-16.8203441">
        <ele>571.2</ele>
        <time>2009-09-22T11:21:05Z</time>
      </trkpt><trkpt lat="28.3441126" lon="-16.8201362">
        <ele>569.2</ele>
        <time>2009-09-22T11:21:26Z</time>
      </trkpt><trkpt lat="28.3441204" lon="-16.8201314">
        <ele>569.2</ele>
        <time>2009-09-22T11:21:27Z</time>
      </trkpt><trkpt lat="28.3440879" lon="-16.8202917">
        <ele>569.2</ele>
        <time>2009-09-22T11:21:42Z</time>
      </trkpt><trkpt lat="28.3439806" lon="-16.8203745">
        <ele>572.6</ele>
        <time>2009-09-22T11:21:55Z</time>
      </trkpt><trkpt lat="28.3438781" lon="-16.8205062">
        <ele>573.6</ele>
        <time>2009-09-22T11:22:10Z</time>
      </trkpt><trkpt lat="28.3438626" lon="-16.8206696">
        <ele>571.6</ele>
        <time>2009-09-22T11:22:25Z</time>
      </trkpt><trkpt lat="28.3438681" lon="-16.8207147">
        <ele>570.7</ele>
        <time>2009-09-22T11:22:29Z</time>
      </trkpt><trkpt lat="28.3438474" lon="-16.8209325">
        <ele>570.7</ele>
        <time>2009-09-22T11:22:48Z</time>
      </trkpt><trkpt lat="28.3437733" lon="-16.8211536">
        <ele>572.1</ele>
        <time>2009-09-22T11:23:09Z</time>
      </trkpt><trkpt lat="28.3436699" lon="-16.821351">
        <ele>574.5</ele>
        <time>2009-09-22T11:23:29Z</time>
      </trkpt><trkpt lat="28.3435528" lon="-16.8215086">
        <ele>576</ele>
        <time>2009-09-22T11:23:48Z</time>
      </trkpt><trkpt lat="28.3434136" lon="-16.8216618">
        <ele>578.9</ele>
        <time>2009-09-22T11:24:07Z</time>
      </trkpt><trkpt lat="28.3432487" lon="-16.8217809">
        <ele>582.2</ele>
        <time>2009-09-22T11:24:27Z</time>
      </trkpt><trkpt lat="28.3430655" lon="-16.8217716">
        <ele>583.7</ele>
        <time>2009-09-22T11:24:45Z</time>
      </trkpt><trkpt lat="28.3430061" lon="-16.8217849">
        <ele>583.7</ele>
        <time>2009-09-22T11:24:51Z</time>
      </trkpt><trkpt lat="28.3428867" lon="-16.8218852">
        <ele>585.1</ele>
        <time>2009-09-22T11:25:06Z</time>
      </trkpt><trkpt lat="28.3428336" lon="-16.8219532">
        <ele>586.5</ele>
        <time>2009-09-22T11:25:14Z</time>
      </trkpt><trkpt lat="28.3427188" lon="-16.8220798">
        <ele>588.5</ele>
        <time>2009-09-22T11:25:30Z</time>
      </trkpt><trkpt lat="28.3426209" lon="-16.8221171">
        <ele>589.4</ele>
        <time>2009-09-22T11:25:41Z</time>
      </trkpt><trkpt lat="28.3425283" lon="-16.8219918">
        <ele>590.9</ele>
        <time>2009-09-22T11:25:55Z</time>
      </trkpt><trkpt lat="28.3425643" lon="-16.8218748">
        <ele>592.3</ele>
        <time>2009-09-22T11:26:06Z</time>
      </trkpt><trkpt lat="28.3425969" lon="-16.8217978">
        <ele>595.2</ele>
        <time>2009-09-22T11:26:13Z</time>
      </trkpt><trkpt lat="28.3425644" lon="-16.821753">
        <ele>596.2</ele>
        <time>2009-09-22T11:26:19Z</time>
      </trkpt><trkpt lat="28.3424992" lon="-16.8218406">
        <ele>599</ele>
        <time>2009-09-22T11:26:29Z</time>
      </trkpt><trkpt lat="28.3424444" lon="-16.8219147">
        <ele>601.9</ele>
        <time>2009-09-22T11:26:37Z</time>
      </trkpt><trkpt lat="28.3424432" lon="-16.8218892">
        <ele>602.4</ele>
        <time>2009-09-22T11:26:40Z</time>
      </trkpt><trkpt lat="28.3424415" lon="-16.8218362">
        <ele>602.4</ele>
        <time>2009-09-22T11:26:44Z</time>
      </trkpt><trkpt lat="28.3424293" lon="-16.8217193">
        <ele>604.8</ele>
        <time>2009-09-22T11:26:55Z</time>
      </trkpt><trkpt lat="28.3423728" lon="-16.8216306">
        <ele>606.7</ele>
        <time>2009-09-22T11:27:04Z</time>
      </trkpt><trkpt lat="28.3423355" lon="-16.8216301">
        <ele>608.2</ele>
        <time>2009-09-22T11:27:08Z</time>
      </trkpt><trkpt lat="28.3422279" lon="-16.8216141">
        <ele>610.6</ele>
        <time>2009-09-22T11:27:19Z</time>
      </trkpt><trkpt lat="28.342065" lon="-16.821606">
        <ele>612.5</ele>
        <time>2009-09-22T11:27:35Z</time>
      </trkpt><trkpt lat="28.341904" lon="-16.8215321">
        <ele>613.9</ele>
        <time>2009-09-22T11:27:53Z</time>
      </trkpt><trkpt lat="28.3418836" lon="-16.8215306">
        <ele>615.4</ele>
        <time>2009-09-22T11:27:55Z</time>
      </trkpt><trkpt lat="28.341804" lon="-16.8214876">
        <ele>618.3</ele>
        <time>2009-09-22T11:28:04Z</time>
      </trkpt><trkpt lat="28.3416717" lon="-16.8214669">
        <ele>620.7</ele>
        <time>2009-09-22T11:28:17Z</time>
      </trkpt><trkpt lat="28.3415326" lon="-16.8214727">
        <ele>622.6</ele>
        <time>2009-09-22T11:28:31Z</time>
      </trkpt><trkpt lat="28.3414396" lon="-16.8214418">
        <ele>624.5</ele>
        <time>2009-09-22T11:28:41Z</time>
      </trkpt><trkpt lat="28.3414291" lon="-16.8214204">
        <ele>625</ele>
        <time>2009-09-22T11:28:43Z</time>
      </trkpt><trkpt lat="28.3413953" lon="-16.8212608">
        <ele>626.9</ele>
        <time>2009-09-22T11:28:57Z</time>
      </trkpt><trkpt lat="28.3414076" lon="-16.8211257">
        <ele>629.8</ele>
        <time>2009-09-22T11:29:09Z</time>
      </trkpt><trkpt lat="28.3414263" lon="-16.8209861">
        <ele>632.2</ele>
        <time>2009-09-22T11:29:22Z</time>
      </trkpt><trkpt lat="28.3414329" lon="-16.8209776">
        <ele>632.2</ele>
        <time>2009-09-22T11:29:23Z</time>
      </trkpt><trkpt lat="28.3414626" lon="-16.8209433">
        <ele>633.2</ele>
        <time>2009-09-22T11:29:27Z</time>
      </trkpt><trkpt lat="28.3415793" lon="-16.8208098">
        <ele>634.6</ele>
        <time>2009-09-22T11:29:44Z</time>
      </trkpt><trkpt lat="28.3416847" lon="-16.8207134">
        <ele>637</ele>
        <time>2009-09-22T11:29:57Z</time>
      </trkpt><trkpt lat="28.3417604" lon="-16.8206164">
        <ele>638.9</ele>
        <time>2009-09-22T11:30:09Z</time>
      </trkpt><trkpt lat="28.3417697" lon="-16.8206019">
        <ele>638.5</ele>
        <time>2009-09-22T11:30:10Z</time>
      </trkpt><trkpt lat="28.3417335" lon="-16.8206475">
        <ele>640.4</ele>
        <time>2009-09-22T11:30:16Z</time>
      </trkpt><trkpt lat="28.3416448" lon="-16.8206841">
        <ele>643.3</ele>
        <time>2009-09-22T11:30:25Z</time>
      </trkpt><trkpt lat="28.3415398" lon="-16.8206988">
        <ele>646.1</ele>
        <time>2009-09-22T11:30:36Z</time>
      </trkpt><trkpt lat="28.3414482" lon="-16.8207076">
        <ele>649.5</ele>
        <time>2009-09-22T11:30:45Z</time>
      </trkpt><trkpt lat="28.3413708" lon="-16.8206888">
        <ele>652.4</ele>
        <time>2009-09-22T11:30:53Z</time>
      </trkpt><trkpt lat="28.3413014" lon="-16.8206407">
        <ele>654.3</ele>
        <time>2009-09-22T11:31:01Z</time>
      </trkpt><trkpt lat="28.3412031" lon="-16.8205507">
        <ele>655.8</ele>
        <time>2009-09-22T11:31:14Z</time>
      </trkpt><trkpt lat="28.3411239" lon="-16.8205806">
        <ele>659.1</ele>
        <time>2009-09-22T11:31:22Z</time>
      </trkpt><trkpt lat="28.3410799" lon="-16.8206969">
        <ele>662</ele>
        <time>2009-09-22T11:31:33Z</time>
      </trkpt><trkpt lat="28.3410301" lon="-16.8207957">
        <ele>664.9</ele>
        <time>2009-09-22T11:31:44Z</time>
      </trkpt><trkpt lat="28.3409198" lon="-16.8208769">
        <ele>667.8</ele>
        <time>2009-09-22T11:31:57Z</time>
      </trkpt><trkpt lat="28.3408051" lon="-16.820947">
        <ele>669.7</ele>
        <time>2009-09-22T11:32:10Z</time>
      </trkpt><trkpt lat="28.3407109" lon="-16.8210045">
        <ele>673.1</ele>
        <time>2009-09-22T11:32:21Z</time>
      </trkpt><trkpt lat="28.3405815" lon="-16.8210459">
        <ele>675</ele>
        <time>2009-09-22T11:32:34Z</time>
      </trkpt><trkpt lat="28.3404122" lon="-16.821083">
        <ele>677.9</ele>
        <time>2009-09-22T11:32:51Z</time>
      </trkpt><trkpt lat="28.3403812" lon="-16.8210728">
        <ele>678.3</ele>
        <time>2009-09-22T11:32:55Z</time>
      </trkpt><trkpt lat="28.3402541" lon="-16.8210089">
        <ele>679.8</ele>
        <time>2009-09-22T11:33:09Z</time>
      </trkpt><trkpt lat="28.3401298" lon="-16.8210341">
        <ele>682.7</ele>
        <time>2009-09-22T11:33:21Z</time>
      </trkpt><trkpt lat="28.3400009" lon="-16.8210268">
        <ele>685.6</ele>
        <time>2009-09-22T11:33:34Z</time>
      </trkpt><trkpt lat="28.3398936" lon="-16.8209547">
        <ele>687</ele>
        <time>2009-09-22T11:33:47Z</time>
      </trkpt><trkpt lat="28.3398799" lon="-16.8209377">
        <ele>687</ele>
        <time>2009-09-22T11:33:49Z</time>
      </trkpt><trkpt lat="28.3398672" lon="-16.820918">
        <ele>687.5</ele>
        <time>2009-09-22T11:33:51Z</time>
      </trkpt><trkpt lat="28.339734" lon="-16.8208276">
        <ele>689.9</ele>
        <time>2009-09-22T11:34:06Z</time>
      </trkpt><trkpt lat="28.3396031" lon="-16.8207303">
        <ele>691.8</ele>
        <time>2009-09-22T11:34:22Z</time>
      </trkpt><trkpt lat="28.3395715" lon="-16.8207072">
        <ele>694.2</ele>
        <time>2009-09-22T11:34:26Z</time>
      </trkpt><trkpt lat="28.3394974" lon="-16.820637">
        <ele>697.6</ele>
        <time>2009-09-22T11:34:36Z</time>
      </trkpt><trkpt lat="28.3394132" lon="-16.8206077">
        <ele>699.5</ele>
        <time>2009-09-22T11:34:44Z</time>
      </trkpt><trkpt lat="28.3394355" lon="-16.8206662">
        <ele>700</ele>
        <time>2009-09-22T11:34:50Z</time>
      </trkpt><trkpt lat="28.3394259" lon="-16.8208566">
        <ele>700.9</ele>
        <time>2009-09-22T11:35:07Z</time>
      </trkpt><trkpt lat="28.3393253" lon="-16.8210438">
        <ele>701.4</ele>
        <time>2009-09-22T11:35:26Z</time>
      </trkpt><trkpt lat="28.339273" lon="-16.8211644">
        <ele>702.4</ele>
        <time>2009-09-22T11:35:38Z</time>
      </trkpt><trkpt lat="28.3392239" lon="-16.8212978">
        <ele>702.4</ele>
        <time>2009-09-22T11:35:51Z</time>
      </trkpt><trkpt lat="28.3391652" lon="-16.8214835">
        <ele>702.9</ele>
        <time>2009-09-22T11:36:08Z</time>
      </trkpt><trkpt lat="28.3391554" lon="-16.821498">
        <ele>702.9</ele>
        <time>2009-09-22T11:36:10Z</time>
      </trkpt><trkpt lat="28.339025" lon="-16.8216426">
        <ele>702.9</ele>
        <time>2009-09-22T11:36:28Z</time>
      </trkpt><trkpt lat="28.3388394" lon="-16.8217369">
        <ele>703.8</ele>
        <time>2009-09-22T11:36:49Z</time>
      </trkpt><trkpt lat="28.3387124" lon="-16.8215897">
        <ele>703.3</ele>
        <time>2009-09-22T11:37:07Z</time>
      </trkpt><trkpt lat="28.3387051" lon="-16.8215793">
        <ele>703.3</ele>
        <time>2009-09-22T11:37:08Z</time>
      </trkpt><trkpt lat="28.3386171" lon="-16.8214826">
        <ele>701.9</ele>
        <time>2009-09-22T11:37:20Z</time>
      </trkpt><trkpt lat="28.3385964" lon="-16.8214637">
        <ele>700.9</ele>
        <time>2009-09-22T11:37:23Z</time>
      </trkpt><trkpt lat="28.33856" lon="-16.8213946">
        <ele>700.9</ele>
        <time>2009-09-22T11:37:30Z</time>
      </trkpt><trkpt lat="28.3385151" lon="-16.8213085">
        <ele>700</ele>
        <time>2009-09-22T11:37:39Z</time>
      </trkpt><trkpt lat="28.3383632" lon="-16.8214303">
        <ele>701.9</ele>
        <time>2009-09-22T11:37:58Z</time>
      </trkpt><trkpt lat="28.3383234" lon="-16.8214853">
        <ele>702.9</ele>
        <time>2009-09-22T11:38:04Z</time>
      </trkpt><trkpt lat="28.3382856" lon="-16.8215743">
        <ele>704.8</ele>
        <time>2009-09-22T11:38:13Z</time>
      </trkpt><trkpt lat="28.3381469" lon="-16.8217727">
        <ele>705.7</ele>
        <time>2009-09-22T11:38:35Z</time>
      </trkpt><trkpt lat="28.3380609" lon="-16.8218835">
        <ele>707.2</ele>
        <time>2009-09-22T11:38:48Z</time>
      </trkpt><trkpt lat="28.3380596" lon="-16.8219275">
        <ele>708.1</ele>
        <time>2009-09-22T11:38:52Z</time>
      </trkpt><trkpt lat="28.3380826" lon="-16.8220705">
        <ele>709.1</ele>
        <time>2009-09-22T11:39:05Z</time>
      </trkpt><trkpt lat="28.3380972" lon="-16.8221057">
        <ele>708.6</ele>
        <time>2009-09-22T11:39:08Z</time>
      </trkpt><trkpt lat="28.3380614" lon="-16.8222934">
        <ele>710.1</ele>
        <time>2009-09-22T11:39:25Z</time>
      </trkpt><trkpt lat="28.3380438" lon="-16.8223104">
        <ele>710.1</ele>
        <time>2009-09-22T11:39:28Z</time>
      </trkpt><trkpt lat="28.3379674" lon="-16.8224072">
        <ele>710.1</ele>
        <time>2009-09-22T11:39:39Z</time>
      </trkpt><trkpt lat="28.3379009" lon="-16.8225709">
        <ele>711</ele>
        <time>2009-09-22T11:39:55Z</time>
      </trkpt><trkpt lat="28.3377977" lon="-16.8227085">
        <ele>709.6</ele>
        <time>2009-09-22T11:40:11Z</time>
      </trkpt><trkpt lat="28.3376681" lon="-16.8226884">
        <ele>708.6</ele>
        <time>2009-09-22T11:40:24Z</time>
      </trkpt><trkpt lat="28.3375471" lon="-16.8226016">
        <ele>708.1</ele>
        <time>2009-09-22T11:40:39Z</time>
      </trkpt><trkpt lat="28.3374805" lon="-16.8224993">
        <ele>707.7</ele>
        <time>2009-09-22T11:40:50Z</time>
      </trkpt><trkpt lat="28.337348" lon="-16.8224005">
        <ele>709.1</ele>
        <time>2009-09-22T11:41:06Z</time>
      </trkpt><trkpt lat="28.3372476" lon="-16.8223133">
        <ele>712.5</ele>
        <time>2009-09-22T11:41:18Z</time>
      </trkpt><trkpt lat="28.3372138" lon="-16.8223241">
        <ele>713</ele>
        <time>2009-09-22T11:41:22Z</time>
      </trkpt><trkpt lat="28.3371803" lon="-16.8223465">
        <ele>713.9</ele>
        <time>2009-09-22T11:41:26Z</time>
      </trkpt><trkpt lat="28.33707" lon="-16.8224922">
        <ele>715.4</ele>
        <time>2009-09-22T11:41:43Z</time>
      </trkpt><trkpt lat="28.3370176" lon="-16.8225873">
        <ele>716.8</ele>
        <time>2009-09-22T11:41:53Z</time>
      </trkpt><trkpt lat="28.3369615" lon="-16.8226728">
        <ele>716.8</ele>
        <time>2009-09-22T11:42:02Z</time>
      </trkpt><trkpt lat="28.3369035" lon="-16.8226127">
        <ele>717.3</ele>
        <time>2009-09-22T11:42:10Z</time>
      </trkpt><trkpt lat="28.3368046" lon="-16.8224642">
        <ele>718.2</ele>
        <time>2009-09-22T11:42:26Z</time>
      </trkpt><trkpt lat="28.3366418" lon="-16.8223992">
        <ele>719.7</ele>
        <time>2009-09-22T11:42:44Z</time>
      </trkpt><trkpt lat="28.3365821" lon="-16.8223786">
        <ele>721.1</ele>
        <time>2009-09-22T11:42:50Z</time>
      </trkpt><trkpt lat="28.3364784" lon="-16.822371">
        <ele>722.6</ele>
        <time>2009-09-22T11:43:00Z</time>
      </trkpt><trkpt lat="28.3364203" lon="-16.8224301">
        <ele>723</ele>
        <time>2009-09-22T11:43:08Z</time>
      </trkpt><trkpt lat="28.3362836" lon="-16.8225231">
        <ele>725</ele>
        <time>2009-09-22T11:43:24Z</time>
      </trkpt><trkpt lat="28.3361987" lon="-16.8225834">
        <ele>726.9</ele>
        <time>2009-09-22T11:43:34Z</time>
      </trkpt><trkpt lat="28.3361969" lon="-16.8226004">
        <ele>726.9</ele>
        <time>2009-09-22T11:43:36Z</time>
      </trkpt><trkpt lat="28.3361883" lon="-16.822731">
        <ele>728.3</ele>
        <time>2009-09-22T11:43:47Z</time>
      </trkpt><trkpt lat="28.3361796" lon="-16.8227803">
        <ele>728.3</ele>
        <time>2009-09-22T11:43:52Z</time>
      </trkpt><trkpt lat="28.3361815" lon="-16.8228186">
        <ele>729.3</ele>
        <time>2009-09-22T11:43:55Z</time>
      </trkpt><trkpt lat="28.3361459" lon="-16.8229641">
        <ele>730.7</ele>
        <time>2009-09-22T11:44:09Z</time>
      </trkpt><trkpt lat="28.3361509" lon="-16.8230723">
        <ele>731.7</ele>
        <time>2009-09-22T11:44:18Z</time>
      </trkpt><trkpt lat="28.3361193" lon="-16.8232174">
        <ele>733.6</ele>
        <time>2009-09-22T11:44:31Z</time>
      </trkpt><trkpt lat="28.336094" lon="-16.823332">
        <ele>733.6</ele>
        <time>2009-09-22T11:44:42Z</time>
      </trkpt><trkpt lat="28.3360945" lon="-16.8233534">
        <ele>733.6</ele>
        <time>2009-09-22T11:44:44Z</time>
      </trkpt><trkpt lat="28.3361793" lon="-16.8234293">
        <ele>735.5</ele>
        <time>2009-09-22T11:44:55Z</time>
      </trkpt><trkpt lat="28.3361508" lon="-16.8235131">
        <ele>737</ele>
        <time>2009-09-22T11:45:02Z</time>
      </trkpt><trkpt lat="28.3361422" lon="-16.8236261">
        <ele>738.9</ele>
        <time>2009-09-22T11:45:13Z</time>
      </trkpt><trkpt lat="28.3361233" lon="-16.8236822">
        <ele>739.9</ele>
        <time>2009-09-22T11:45:18Z</time>
      </trkpt><trkpt lat="28.3361872" lon="-16.82374">
        <ele>742.3</ele>
        <time>2009-09-22T11:45:26Z</time>
      </trkpt><trkpt lat="28.3361722" lon="-16.8238556">
        <ele>743.7</ele>
        <time>2009-09-22T11:45:36Z</time>
      </trkpt><trkpt lat="28.3361675" lon="-16.823931">
        <ele>746.1</ele>
        <time>2009-09-22T11:45:43Z</time>
      </trkpt><trkpt lat="28.3360786" lon="-16.8239752">
        <ele>749</ele>
        <time>2009-09-22T11:45:53Z</time>
      </trkpt><trkpt lat="28.3361511" lon="-16.8240612">
        <ele>751.9</ele>
        <time>2009-09-22T11:46:03Z</time>
      </trkpt><trkpt lat="28.3361827" lon="-16.8241131">
        <ele>754.8</ele>
        <time>2009-09-22T11:46:09Z</time>
      </trkpt><trkpt lat="28.3361576" lon="-16.8242311">
        <ele>757.7</ele>
        <time>2009-09-22T11:46:20Z</time>
      </trkpt><trkpt lat="28.3360604" lon="-16.8242644">
        <ele>758.1</ele>
        <time>2009-09-22T11:46:30Z</time>
      </trkpt><trkpt lat="28.3360601" lon="-16.8243032">
        <ele>759.1</ele>
        <time>2009-09-22T11:46:33Z</time>
      </trkpt><trkpt lat="28.3360034" lon="-16.8242832">
        <ele>760.1</ele>
        <time>2009-09-22T11:46:39Z</time>
      </trkpt><trkpt lat="28.3359902" lon="-16.8242893">
        <ele>759.6</ele>
        <time>2009-09-22T11:46:41Z</time>
      </trkpt><trkpt lat="28.3358402" lon="-16.8242901">
        <ele>758.1</ele>
        <time>2009-09-22T11:46:56Z</time>
      </trkpt><trkpt lat="28.3358101" lon="-16.8242732">
        <ele>757.2</ele>
        <time>2009-09-22T11:46:59Z</time>
      </trkpt><trkpt lat="28.3357956" lon="-16.8242554">
        <ele>755.7</ele>
        <time>2009-09-22T11:47:01Z</time>
      </trkpt><trkpt lat="28.3357355" lon="-16.8240725">
        <ele>756.2</ele>
        <time>2009-09-22T11:47:18Z</time>
      </trkpt><trkpt lat="28.3357153" lon="-16.8240182">
        <ele>756.2</ele>
        <time>2009-09-22T11:47:24Z</time>
      </trkpt><trkpt lat="28.3356937" lon="-16.8238425">
        <ele>755.7</ele>
        <time>2009-09-22T11:47:39Z</time>
      </trkpt><trkpt lat="28.3356849" lon="-16.8236184">
        <ele>755.7</ele>
        <time>2009-09-22T11:47:59Z</time>
      </trkpt><trkpt lat="28.3356769" lon="-16.8236043">
        <ele>755.7</ele>
        <time>2009-09-22T11:48:01Z</time>
      </trkpt><trkpt lat="28.3356646" lon="-16.8234793">
        <ele>755.3</ele>
        <time>2009-09-22T11:48:12Z</time>
      </trkpt><trkpt lat="28.335598" lon="-16.8232624">
        <ele>755.3</ele>
        <time>2009-09-22T11:48:32Z</time>
      </trkpt><trkpt lat="28.3355896" lon="-16.8232158">
        <ele>754.8</ele>
        <time>2009-09-22T11:48:36Z</time>
      </trkpt><trkpt lat="28.3355682" lon="-16.8231445">
        <ele>754.8</ele>
        <time>2009-09-22T11:48:43Z</time>
      </trkpt><trkpt lat="28.3355206" lon="-16.8229532">
        <ele>755.3</ele>
        <time>2009-09-22T11:49:00Z</time>
      </trkpt><trkpt lat="28.335522" lon="-16.822745">
        <ele>755.7</ele>
        <time>2009-09-22T11:49:19Z</time>
      </trkpt><trkpt lat="28.335431" lon="-16.8224859">
        <ele>756.7</ele>
        <time>2009-09-22T11:49:43Z</time>
      </trkpt><trkpt lat="28.3353505" lon="-16.822219">
        <ele>756.2</ele>
        <time>2009-09-22T11:50:08Z</time>
      </trkpt><trkpt lat="28.3351932" lon="-16.8220833">
        <ele>756.2</ele>
        <time>2009-09-22T11:50:28Z</time>
      </trkpt><trkpt lat="28.335109" lon="-16.8222071">
        <ele>756.2</ele>
        <time>2009-09-22T11:50:42Z</time>
      </trkpt><trkpt lat="28.3349377" lon="-16.8223102">
        <ele>755.3</ele>
        <time>2009-09-22T11:51:01Z</time>
      </trkpt><trkpt lat="28.3347605" lon="-16.8223942">
        <ele>754.8</ele>
        <time>2009-09-22T11:51:21Z</time>
      </trkpt><trkpt lat="28.3345654" lon="-16.8224502">
        <ele>752.9</ele>
        <time>2009-09-22T11:51:41Z</time>
      </trkpt><trkpt lat="28.3344844" lon="-16.8226864">
        <ele>750</ele>
        <time>2009-09-22T11:52:03Z</time>
      </trkpt><trkpt lat="28.3344405" lon="-16.8227474">
        <ele>749</ele>
        <time>2009-09-22T11:52:10Z</time>
      </trkpt><trkpt lat="28.3342666" lon="-16.8227346">
        <ele>747.6</ele>
        <time>2009-09-22T11:52:28Z</time>
      </trkpt><trkpt lat="28.3340411" lon="-16.8226819">
        <ele>748</ele>
        <time>2009-09-22T11:52:51Z</time>
      </trkpt><trkpt lat="28.3338568" lon="-16.8228826">
        <ele>746.6</ele>
        <time>2009-09-22T11:53:17Z</time>
      </trkpt><trkpt lat="28.3337643" lon="-16.8231241">
        <ele>745.6</ele>
        <time>2009-09-22T11:53:40Z</time>
      </trkpt><trkpt lat="28.3336496" lon="-16.823281">
        <ele>743.2</ele>
        <time>2009-09-22T11:53:58Z</time>
      </trkpt><trkpt lat="28.3335957" lon="-16.823354">
        <ele>740.8</ele>
        <time>2009-09-22T11:54:06Z</time>
      </trkpt><trkpt lat="28.3334926" lon="-16.8234697">
        <ele>739.9</ele>
        <time>2009-09-22T11:54:21Z</time>
      </trkpt><trkpt lat="28.3334136" lon="-16.8235643">
        <ele>739.4</ele>
        <time>2009-09-22T11:54:32Z</time>
      </trkpt><trkpt lat="28.3333687" lon="-16.8236308">
        <ele>741.3</ele>
        <time>2009-09-22T11:54:40Z</time>
      </trkpt><trkpt lat="28.3333656" lon="-16.8237234">
        <ele>744.7</ele>
        <time>2009-09-22T11:54:48Z</time>
      </trkpt><trkpt lat="28.3333691" lon="-16.8238084">
        <ele>747.1</ele>
        <time>2009-09-22T11:54:55Z</time>
      </trkpt><trkpt lat="28.333311" lon="-16.8239773">
        <ele>750</ele>
        <time>2009-09-22T11:55:11Z</time>
      </trkpt><trkpt lat="28.3332962" lon="-16.8240022">
        <ele>751.4</ele>
        <time>2009-09-22T11:55:14Z</time>
      </trkpt><trkpt lat="28.333247" lon="-16.8239583">
        <ele>754.3</ele>
        <time>2009-09-22T11:55:20Z</time>
      </trkpt><trkpt lat="28.3332294" lon="-16.8239425">
        <ele>755.7</ele>
        <time>2009-09-22T11:55:23Z</time>
      </trkpt><trkpt lat="28.3331487" lon="-16.8239074">
        <ele>759.1</ele>
        <time>2009-09-22T11:55:31Z</time>
      </trkpt><trkpt lat="28.3331331" lon="-16.8238011">
        <ele>759.6</ele>
        <time>2009-09-22T11:55:41Z</time>
      </trkpt><trkpt lat="28.3331556" lon="-16.8237385">
        <ele>759.1</ele>
        <time>2009-09-22T11:55:47Z</time>
      </trkpt><trkpt lat="28.3331293" lon="-16.8235646">
        <ele>758.6</ele>
        <time>2009-09-22T11:56:02Z</time>
      </trkpt><trkpt lat="28.3331045" lon="-16.8233804">
        <ele>759.1</ele>
        <time>2009-09-22T11:56:19Z</time>
      </trkpt><trkpt lat="28.3331947" lon="-16.8230804">
        <ele>757.7</ele>
        <time>2009-09-22T11:56:47Z</time>
      </trkpt><trkpt lat="28.3331652" lon="-16.8229434">
        <ele>756.7</ele>
        <time>2009-09-22T11:56:59Z</time>
      </trkpt><trkpt lat="28.3331247" lon="-16.8228174">
        <ele>756.7</ele>
        <time>2009-09-22T11:57:11Z</time>
      </trkpt><trkpt lat="28.3330517" lon="-16.8227018">
        <ele>756.7</ele>
        <time>2009-09-22T11:57:24Z</time>
      </trkpt><trkpt lat="28.3330227" lon="-16.82273">
        <ele>757.2</ele>
        <time>2009-09-22T11:57:28Z</time>
      </trkpt><trkpt lat="28.3329227" lon="-16.8227691">
        <ele>757.7</ele>
        <time>2009-09-22T11:57:38Z</time>
      </trkpt><trkpt lat="28.3327949" lon="-16.8228448">
        <ele>757.7</ele>
        <time>2009-09-22T11:57:53Z</time>
      </trkpt><trkpt lat="28.3326508" lon="-16.8229281">
        <ele>757.7</ele>
        <time>2009-09-22T11:58:09Z</time>
      </trkpt><trkpt lat="28.3325907" lon="-16.823047">
        <ele>758.6</ele>
        <time>2009-09-22T11:58:21Z</time>
      </trkpt><trkpt lat="28.3324648" lon="-16.8231279">
        <ele>760.1</ele>
        <time>2009-09-22T11:58:36Z</time>
      </trkpt><trkpt lat="28.332331" lon="-16.8230656">
        <ele>761.5</ele>
        <time>2009-09-22T11:58:50Z</time>
      </trkpt><trkpt lat="28.3323519" lon="-16.8228794">
        <ele>761</ele>
        <time>2009-09-22T11:59:07Z</time>
      </trkpt><trkpt lat="28.3324115" lon="-16.8227538">
        <ele>760.5</ele>
        <time>2009-09-22T11:59:19Z</time>
      </trkpt><trkpt lat="28.3324927" lon="-16.8225828">
        <ele>761</ele>
        <time>2009-09-22T11:59:36Z</time>
      </trkpt><trkpt lat="28.3325165" lon="-16.822415">
        <ele>761.5</ele>
        <time>2009-09-22T11:59:51Z</time>
      </trkpt><trkpt lat="28.3325494" lon="-16.8222451">
        <ele>762.5</ele>
        <time>2009-09-22T12:00:07Z</time>
      </trkpt><trkpt lat="28.3324561" lon="-16.8221024">
        <ele>761.5</ele>
        <time>2009-09-22T12:00:23Z</time>
      </trkpt><trkpt lat="28.332448" lon="-16.8218833">
        <ele>762.5</ele>
        <time>2009-09-22T12:00:42Z</time>
      </trkpt><trkpt lat="28.3324792" lon="-16.8218341">
        <ele>763.4</ele>
        <time>2009-09-22T12:00:47Z</time>
      </trkpt><trkpt lat="28.3325561" lon="-16.8217923">
        <ele>764.4</ele>
        <time>2009-09-22T12:00:56Z</time>
      </trkpt><trkpt lat="28.3326006" lon="-16.8217384">
        <ele>764.4</ele>
        <time>2009-09-22T12:01:02Z</time>
      </trkpt><trkpt lat="28.3326408" lon="-16.8216733">
        <ele>764.9</ele>
        <time>2009-09-22T12:01:09Z</time>
      </trkpt><trkpt lat="28.3326628" lon="-16.8216344">
        <ele>765.3</ele>
        <time>2009-09-22T12:01:13Z</time>
      </trkpt><trkpt lat="28.3327766" lon="-16.8215453">
        <ele>766.3</ele>
        <time>2009-09-22T12:01:27Z</time>
      </trkpt><trkpt lat="28.3329179" lon="-16.8214391">
        <ele>768.2</ele>
        <time>2009-09-22T12:01:44Z</time>
      </trkpt><trkpt lat="28.3330067" lon="-16.8213137">
        <ele>770.6</ele>
        <time>2009-09-22T12:01:59Z</time>
      </trkpt><trkpt lat="28.3329725" lon="-16.8212337">
        <ele>772.6</ele>
        <time>2009-09-22T12:02:06Z</time>
      </trkpt><trkpt lat="28.332933" lon="-16.8211085">
        <ele>775</ele>
        <time>2009-09-22T12:02:18Z</time>
      </trkpt><trkpt lat="28.3329461" lon="-16.8211988">
        <ele>777.4</ele>
        <time>2009-09-22T12:02:26Z</time>
      </trkpt><trkpt lat="28.3329362" lon="-16.8212863">
        <ele>777.4</ele>
        <time>2009-09-22T12:02:34Z</time>
      </trkpt><trkpt lat="28.3327757" lon="-16.8213513">
        <ele>779.3</ele>
        <time>2009-09-22T12:02:51Z</time>
      </trkpt><trkpt lat="28.3325946" lon="-16.8214753">
        <ele>780.2</ele>
        <time>2009-09-22T12:03:12Z</time>
      </trkpt><trkpt lat="28.3324815" lon="-16.8215717">
        <ele>782.2</ele>
        <time>2009-09-22T12:03:27Z</time>
      </trkpt><trkpt lat="28.332265" lon="-16.8217973">
        <ele>783.6</ele>
        <time>2009-09-22T12:03:56Z</time>
      </trkpt><trkpt lat="28.332151" lon="-16.821933">
        <ele>786</ele>
        <time>2009-09-22T12:04:13Z</time>
      </trkpt><trkpt lat="28.3320753" lon="-16.8220077">
        <ele>788.9</ele>
        <time>2009-09-22T12:04:23Z</time>
      </trkpt><trkpt lat="28.3319723" lon="-16.8221166">
        <ele>790.3</ele>
        <time>2009-09-22T12:04:37Z</time>
      </trkpt><trkpt lat="28.3319132" lon="-16.8222811">
        <ele>793.7</ele>
        <time>2009-09-22T12:04:53Z</time>
      </trkpt><trkpt lat="28.3318633" lon="-16.8223834">
        <ele>796.6</ele>
        <time>2009-09-22T12:05:03Z</time>
      </trkpt><trkpt lat="28.3318048" lon="-16.8224869">
        <ele>799</ele>
        <time>2009-09-22T12:05:14Z</time>
      </trkpt><trkpt lat="28.3317394" lon="-16.8225347">
        <ele>799.5</ele>
        <time>2009-09-22T12:05:22Z</time>
      </trkpt><trkpt lat="28.3316366" lon="-16.8225496">
        <ele>803.8</ele>
        <time>2009-09-22T12:05:32Z</time>
      </trkpt><trkpt lat="28.3315361" lon="-16.8225827">
        <ele>806.7</ele>
        <time>2009-09-22T12:05:42Z</time>
      </trkpt><trkpt lat="28.3314367" lon="-16.822575">
        <ele>809.6</ele>
        <time>2009-09-22T12:05:52Z</time>
      </trkpt><trkpt lat="28.3313494" lon="-16.8226238">
        <ele>811</ele>
        <time>2009-09-22T12:06:02Z</time>
      </trkpt><trkpt lat="28.3313795" lon="-16.8227881">
        <ele>814.4</ele>
        <time>2009-09-22T12:06:17Z</time>
      </trkpt><trkpt lat="28.3313838" lon="-16.8228922">
        <ele>814.9</ele>
        <time>2009-09-22T12:06:26Z</time>
      </trkpt><trkpt lat="28.331348" lon="-16.8230196">
        <ele>816.8</ele>
        <time>2009-09-22T12:06:38Z</time>
      </trkpt><trkpt lat="28.3312542" lon="-16.8231268">
        <ele>819.7</ele>
        <time>2009-09-22T12:06:51Z</time>
      </trkpt><trkpt lat="28.3311998" lon="-16.8232045">
        <ele>822.5</ele>
        <time>2009-09-22T12:07:00Z</time>
      </trkpt><trkpt lat="28.3311" lon="-16.8232586">
        <ele>824.5</ele>
        <time>2009-09-22T12:07:11Z</time>
      </trkpt><trkpt lat="28.3310165" lon="-16.8233654">
        <ele>827.4</ele>
        <time>2009-09-22T12:07:24Z</time>
      </trkpt><trkpt lat="28.3309874" lon="-16.82345">
        <ele>830.2</ele>
        <time>2009-09-22T12:07:32Z</time>
      </trkpt><trkpt lat="28.3309413" lon="-16.8235494">
        <ele>833.1</ele>
        <time>2009-09-22T12:07:42Z</time>
      </trkpt><trkpt lat="28.3308621" lon="-16.8236665">
        <ele>835</ele>
        <time>2009-09-22T12:07:55Z</time>
      </trkpt><trkpt lat="28.3307952" lon="-16.8237565">
        <ele>837.9</ele>
        <time>2009-09-22T12:08:05Z</time>
      </trkpt><trkpt lat="28.3307041" lon="-16.823869">
        <ele>840.3</ele>
        <time>2009-09-22T12:08:19Z</time>
      </trkpt><trkpt lat="28.3306531" lon="-16.8239044">
        <ele>841.8</ele>
        <time>2009-09-22T12:08:25Z</time>
      </trkpt><trkpt lat="28.3306206" lon="-16.8239364">
        <ele>843.2</ele>
        <time>2009-09-22T12:08:29Z</time>
      </trkpt><trkpt lat="28.3305357" lon="-16.8239803">
        <ele>846.1</ele>
        <time>2009-09-22T12:08:39Z</time>
      </trkpt><trkpt lat="28.3304172" lon="-16.824039">
        <ele>848</ele>
        <time>2009-09-22T12:08:52Z</time>
      </trkpt><trkpt lat="28.3302969" lon="-16.82413">
        <ele>849.9</ele>
        <time>2009-09-22T12:09:06Z</time>
      </trkpt><trkpt lat="28.3301777" lon="-16.8241932">
        <ele>850.9</ele>
        <time>2009-09-22T12:09:19Z</time>
      </trkpt><trkpt lat="28.3300757" lon="-16.8241679">
        <ele>851.4</ele>
        <time>2009-09-22T12:09:30Z</time>
      </trkpt><trkpt lat="28.3301146" lon="-16.8240479">
        <ele>852.3</ele>
        <time>2009-09-22T12:09:41Z</time>
      </trkpt><trkpt lat="28.3301505" lon="-16.8239215">
        <ele>852.3</ele>
        <time>2009-09-22T12:09:53Z</time>
      </trkpt><trkpt lat="28.3301223" lon="-16.8238447">
        <ele>852.3</ele>
        <time>2009-09-22T12:10:00Z</time>
      </trkpt><trkpt lat="28.330183" lon="-16.8236795">
        <ele>854.3</ele>
        <time>2009-09-22T12:10:16Z</time>
      </trkpt><trkpt lat="28.3302436" lon="-16.823523">
        <ele>854.3</ele>
        <time>2009-09-22T12:10:31Z</time>
      </trkpt><trkpt lat="28.33027" lon="-16.823351">
        <ele>855.7</ele>
        <time>2009-09-22T12:10:46Z</time>
      </trkpt><trkpt lat="28.3302452" lon="-16.8231381">
        <ele>858.1</ele>
        <time>2009-09-22T12:11:05Z</time>
      </trkpt><trkpt lat="28.3302312" lon="-16.8231201">
        <ele>858.1</ele>
        <time>2009-09-22T12:11:08Z</time>
      </trkpt><trkpt lat="28.3301477" lon="-16.8230463">
        <ele>859.6</ele>
        <time>2009-09-22T12:11:18Z</time>
      </trkpt><trkpt lat="28.3300728" lon="-16.8229466">
        <ele>858.6</ele>
        <time>2009-09-22T12:11:30Z</time>
      </trkpt><trkpt lat="28.3300281" lon="-16.8229347">
        <ele>858.6</ele>
        <time>2009-09-22T12:11:34Z</time>
      </trkpt><trkpt lat="28.329888" lon="-16.822847">
        <ele>859.1</ele>
        <time>2009-09-22T12:11:50Z</time>
      </trkpt><trkpt lat="28.3298764" lon="-16.8226776">
        <ele>860.5</ele>
        <time>2009-09-22T12:12:05Z</time>
      </trkpt><trkpt lat="28.3298478" lon="-16.8225953">
        <ele>862.9</ele>
        <time>2009-09-22T12:12:13Z</time>
      </trkpt><trkpt lat="28.3298301" lon="-16.8225688">
        <ele>863.9</ele>
        <time>2009-09-22T12:12:16Z</time>
      </trkpt><trkpt lat="28.3298141" lon="-16.8224529">
        <ele>864.8</ele>
        <time>2009-09-22T12:12:27Z</time>
      </trkpt><trkpt lat="28.3297976" lon="-16.8223449">
        <ele>864.8</ele>
        <time>2009-09-22T12:12:36Z</time>
      </trkpt><trkpt lat="28.3298267" lon="-16.8222244">
        <ele>866.3</ele>
        <time>2009-09-22T12:12:47Z</time>
      </trkpt><trkpt lat="28.329816" lon="-16.8220913">
        <ele>868.2</ele>
        <time>2009-09-22T12:12:59Z</time>
      </trkpt><trkpt lat="28.3297624" lon="-16.8219918">
        <ele>870.6</ele>
        <time>2009-09-22T12:13:09Z</time>
      </trkpt><trkpt lat="28.3296909" lon="-16.8218898">
        <ele>872.5</ele>
        <time>2009-09-22T12:13:21Z</time>
      </trkpt><trkpt lat="28.3296164" lon="-16.8218502">
        <ele>875.4</ele>
        <time>2009-09-22T12:13:29Z</time>
      </trkpt><trkpt lat="28.3297088" lon="-16.8216732">
        <ele>876.4</ele>
        <time>2009-09-22T12:13:47Z</time>
      </trkpt><trkpt lat="28.329719" lon="-16.8216126">
        <ele>877.3</ele>
        <time>2009-09-22T12:13:53Z</time>
      </trkpt><trkpt lat="28.3298029" lon="-16.8215245">
        <ele>879.7</ele>
        <time>2009-09-22T12:14:04Z</time>
      </trkpt><trkpt lat="28.3297458" lon="-16.8215511">
        <ele>881.7</ele>
        <time>2009-09-22T12:14:10Z</time>
      </trkpt><trkpt lat="28.3296986" lon="-16.8216348">
        <ele>884.1</ele>
        <time>2009-09-22T12:14:19Z</time>
      </trkpt><trkpt lat="28.3296349" lon="-16.8216209">
        <ele>887</ele>
        <time>2009-09-22T12:14:26Z</time>
      </trkpt><trkpt lat="28.3297204" lon="-16.8214607">
        <ele>888.9</ele>
        <time>2009-09-22T12:14:42Z</time>
      </trkpt><trkpt lat="28.3297986" lon="-16.821335">
        <ele>890.8</ele>
        <time>2009-09-22T12:14:56Z</time>
      </trkpt><trkpt lat="28.3298209" lon="-16.8213121">
        <ele>892.7</ele>
        <time>2009-09-22T12:14:59Z</time>
      </trkpt><trkpt lat="28.3298592" lon="-16.8212141">
        <ele>894.2</ele>
        <time>2009-09-22T12:15:08Z</time>
      </trkpt><trkpt lat="28.3298634" lon="-16.8211996">
        <ele>894.2</ele>
        <time>2009-09-22T12:15:10Z</time>
      </trkpt><trkpt lat="28.3297826" lon="-16.8212304">
        <ele>896.6</ele>
        <time>2009-09-22T12:15:18Z</time>
      </trkpt><trkpt lat="28.3297738" lon="-16.8212329">
        <ele>896.1</ele>
        <time>2009-09-22T12:15:19Z</time>
      </trkpt><trkpt lat="28.3296742" lon="-16.8212635">
        <ele>899.5</ele>
        <time>2009-09-22T12:15:30Z</time>
      </trkpt><trkpt lat="28.3296556" lon="-16.8212654">
        <ele>899.9</ele>
        <time>2009-09-22T12:15:31Z</time>
      </trkpt><trkpt lat="28.3295097" lon="-16.8213285">
        <ele>899.9</ele>
        <time>2009-09-22T12:15:47Z</time>
      </trkpt><trkpt lat="28.329485" lon="-16.8214241">
        <ele>901.4</ele>
        <time>2009-09-22T12:15:56Z</time>
      </trkpt><trkpt lat="28.329421" lon="-16.8214235">
        <ele>901.4</ele>
        <time>2009-09-22T12:16:02Z</time>
      </trkpt><trkpt lat="28.3291848" lon="-16.8213531">
        <ele>901.9</ele>
        <time>2009-09-22T12:16:27Z</time>
      </trkpt><trkpt lat="28.3290056" lon="-16.82129">
        <ele>901.9</ele>
        <time>2009-09-22T12:16:46Z</time>
      </trkpt><trkpt lat="28.3288197" lon="-16.8214421">
        <ele>901.4</ele>
        <time>2009-09-22T12:17:09Z</time>
      </trkpt><trkpt lat="28.3286332" lon="-16.8216111">
        <ele>900.4</ele>
        <time>2009-09-22T12:17:33Z</time>
      </trkpt><trkpt lat="28.3285114" lon="-16.8217362">
        <ele>899</ele>
        <time>2009-09-22T12:17:49Z</time>
      </trkpt><trkpt lat="28.3284227" lon="-16.8217372">
        <ele>898.5</ele>
        <time>2009-09-22T12:17:58Z</time>
      </trkpt><trkpt lat="28.3283435" lon="-16.8215738">
        <ele>899.5</ele>
        <time>2009-09-22T12:18:15Z</time>
      </trkpt><trkpt lat="28.3282942" lon="-16.8215026">
        <ele>899.9</ele>
        <time>2009-09-22T12:18:23Z</time>
      </trkpt><trkpt lat="28.3283425" lon="-16.821453">
        <ele>899.5</ele>
        <time>2009-09-22T12:18:29Z</time>
      </trkpt><trkpt lat="28.3284445" lon="-16.8214365">
        <ele>899</ele>
        <time>2009-09-22T12:18:39Z</time>
      </trkpt><trkpt lat="28.3283708" lon="-16.821496">
        <ele>899</ele>
        <time>2009-09-22T12:18:48Z</time>
      </trkpt><trkpt lat="28.3283105" lon="-16.8214624">
        <ele>899</ele>
        <time>2009-09-22T12:18:55Z</time>
      </trkpt><trkpt lat="28.3281895" lon="-16.8214106">
        <ele>899</ele>
        <time>2009-09-22T12:19:08Z</time>
      </trkpt><trkpt lat="28.3281594" lon="-16.8213834">
        <ele>898.5</ele>
        <time>2009-09-22T12:19:12Z</time>
      </trkpt><trkpt lat="28.3281737" lon="-16.8211836">
        <ele>899.5</ele>
        <time>2009-09-22T12:19:30Z</time>
      </trkpt><trkpt lat="28.3280887" lon="-16.8210226">
        <ele>899.9</ele>
        <time>2009-09-22T12:19:46Z</time>
      </trkpt><trkpt lat="28.3280341" lon="-16.8209585">
        <ele>900.4</ele>
        <time>2009-09-22T12:19:54Z</time>
      </trkpt><trkpt lat="28.3279379" lon="-16.8208082">
        <ele>899</ele>
        <time>2009-09-22T12:20:11Z</time>
      </trkpt><trkpt lat="28.3278277" lon="-16.8206373">
        <ele>898.5</ele>
        <time>2009-09-22T12:20:29Z</time>
      </trkpt><trkpt lat="28.3278047" lon="-16.8206108">
        <ele>899</ele>
        <time>2009-09-22T12:20:33Z</time>
      </trkpt><trkpt lat="28.3276831" lon="-16.8204251">
        <ele>899</ele>
        <time>2009-09-22T12:20:53Z</time>
      </trkpt><trkpt lat="28.3276561" lon="-16.8203619">
        <ele>899.5</ele>
        <time>2009-09-22T12:20:59Z</time>
      </trkpt><trkpt lat="28.3275133" lon="-16.820193">
        <ele>901.4</ele>
        <time>2009-09-22T12:21:20Z</time>
      </trkpt><trkpt lat="28.3274183" lon="-16.8201917">
        <ele>901.9</ele>
        <time>2009-09-22T12:21:30Z</time>
      </trkpt><trkpt lat="28.3272645" lon="-16.8202547">
        <ele>902.3</ele>
        <time>2009-09-22T12:21:46Z</time>
      </trkpt><trkpt lat="28.32717" lon="-16.8203793">
        <ele>902.8</ele>
        <time>2009-09-22T12:22:00Z</time>
      </trkpt><trkpt lat="28.3271356" lon="-16.8204274">
        <ele>903.3</ele>
        <time>2009-09-22T12:22:06Z</time>
      </trkpt><trkpt lat="28.3270279" lon="-16.8205453">
        <ele>903.8</ele>
        <time>2009-09-22T12:22:21Z</time>
      </trkpt><trkpt lat="28.326922" lon="-16.8206577">
        <ele>903.3</ele>
        <time>2009-09-22T12:22:36Z</time>
      </trkpt><trkpt lat="28.3268168" lon="-16.8208061">
        <ele>903.3</ele>
        <time>2009-09-22T12:22:52Z</time>
      </trkpt><trkpt lat="28.3268008" lon="-16.82083">
        <ele>903.3</ele>
        <time>2009-09-22T12:22:55Z</time>
      </trkpt><trkpt lat="28.3267539" lon="-16.8210444">
        <ele>902.8</ele>
        <time>2009-09-22T12:23:15Z</time>
      </trkpt><trkpt lat="28.3267129" lon="-16.8211796">
        <ele>903.8</ele>
        <time>2009-09-22T12:23:27Z</time>
      </trkpt><trkpt lat="28.3266518" lon="-16.8213562">
        <ele>905.7</ele>
        <time>2009-09-22T12:23:44Z</time>
      </trkpt><trkpt lat="28.326519" lon="-16.8215389">
        <ele>907.1</ele>
        <time>2009-09-22T12:24:05Z</time>
      </trkpt><trkpt lat="28.326436" lon="-16.8215984">
        <ele>907.6</ele>
        <time>2009-09-22T12:24:15Z</time>
      </trkpt><trkpt lat="28.3263672" lon="-16.8216127">
        <ele>908.1</ele>
        <time>2009-09-22T12:24:22Z</time>
      </trkpt><trkpt lat="28.3262917" lon="-16.8214396">
        <ele>908.6</ele>
        <time>2009-09-22T12:24:39Z</time>
      </trkpt><trkpt lat="28.326276" lon="-16.8213997">
        <ele>909.1</ele>
        <time>2009-09-22T12:24:43Z</time>
      </trkpt><trkpt lat="28.3262425" lon="-16.8213184">
        <ele>910</ele>
        <time>2009-09-22T12:24:51Z</time>
      </trkpt><trkpt lat="28.3261962" lon="-16.8212391">
        <ele>910.5</ele>
        <time>2009-09-22T12:24:59Z</time>
      </trkpt><trkpt lat="28.3261072" lon="-16.821064">
        <ele>912.4</ele>
        <time>2009-09-22T12:25:17Z</time>
      </trkpt><trkpt lat="28.3260772" lon="-16.8210065">
        <ele>911.9</ele>
        <time>2009-09-22T12:25:23Z</time>
      </trkpt><trkpt lat="28.3260581" lon="-16.8209468">
        <ele>912.9</ele>
        <time>2009-09-22T12:25:28Z</time>
      </trkpt><trkpt lat="28.3260176" lon="-16.820849">
        <ele>913.4</ele>
        <time>2009-09-22T12:25:38Z</time>
      </trkpt><trkpt lat="28.3258654" lon="-16.8207611">
        <ele>915.3</ele>
        <time>2009-09-22T12:25:55Z</time>
      </trkpt><trkpt lat="28.3256809" lon="-16.8207426">
        <ele>916.3</ele>
        <time>2009-09-22T12:26:14Z</time>
      </trkpt><trkpt lat="28.3255862" lon="-16.8207307">
        <ele>916.8</ele>
        <time>2009-09-22T12:26:23Z</time>
      </trkpt><trkpt lat="28.3254609" lon="-16.8206992">
        <ele>918.2</ele>
        <time>2009-09-22T12:26:36Z</time>
      </trkpt><trkpt lat="28.3253173" lon="-16.8206491">
        <ele>918.7</ele>
        <time>2009-09-22T12:26:51Z</time>
      </trkpt><trkpt lat="28.3251475" lon="-16.8206563">
        <ele>919.6</ele>
        <time>2009-09-22T12:27:08Z</time>
      </trkpt><trkpt lat="28.3250266" lon="-16.8207025">
        <ele>920.1</ele>
        <time>2009-09-22T12:27:21Z</time>
      </trkpt><trkpt lat="28.3250037" lon="-16.8207256">
        <ele>920.6</ele>
        <time>2009-09-22T12:27:24Z</time>
      </trkpt><trkpt lat="28.3248542" lon="-16.8208492">
        <ele>920.6</ele>
        <time>2009-09-22T12:27:43Z</time>
      </trkpt><trkpt lat="28.3247738" lon="-16.8209719">
        <ele>921.1</ele>
        <time>2009-09-22T12:27:56Z</time>
      </trkpt><trkpt lat="28.3246548" lon="-16.8211313">
        <ele>922</ele>
        <time>2009-09-22T12:28:15Z</time>
      </trkpt><trkpt lat="28.3245915" lon="-16.8212247">
        <ele>922</ele>
        <time>2009-09-22T12:28:25Z</time>
      </trkpt><trkpt lat="28.3244506" lon="-16.8213577">
        <ele>922</ele>
        <time>2009-09-22T12:28:44Z</time>
      </trkpt><trkpt lat="28.324293" lon="-16.821481">
        <ele>922</ele>
        <time>2009-09-22T12:29:03Z</time>
      </trkpt><trkpt lat="28.3241745" lon="-16.8216106">
        <ele>923.5</ele>
        <time>2009-09-22T12:29:19Z</time>
      </trkpt><trkpt lat="28.3240927" lon="-16.8217162">
        <ele>924.4</ele>
        <time>2009-09-22T12:29:32Z</time>
      </trkpt><trkpt lat="28.3239846" lon="-16.8218005">
        <ele>924.4</ele>
        <time>2009-09-22T12:29:45Z</time>
      </trkpt><trkpt lat="28.3238543" lon="-16.8219041">
        <ele>926.8</ele>
        <time>2009-09-22T12:30:01Z</time>
      </trkpt><trkpt lat="28.323786" lon="-16.8219883">
        <ele>927.3</ele>
        <time>2009-09-22T12:30:11Z</time>
      </trkpt><trkpt lat="28.3237594" lon="-16.8220042">
        <ele>927.8</ele>
        <time>2009-09-22T12:30:14Z</time>
      </trkpt><trkpt lat="28.3236302" lon="-16.8220902">
        <ele>928.8</ele>
        <time>2009-09-22T12:30:29Z</time>
      </trkpt><trkpt lat="28.3235803" lon="-16.8221138">
        <ele>929.3</ele>
        <time>2009-09-22T12:30:34Z</time>
      </trkpt><trkpt lat="28.3234673" lon="-16.8221871">
        <ele>931.2</ele>
        <time>2009-09-22T12:30:47Z</time>
      </trkpt><trkpt lat="28.3234199" lon="-16.822282">
        <ele>931.7</ele>
        <time>2009-09-22T12:30:57Z</time>
      </trkpt><trkpt lat="28.3233321" lon="-16.8223902">
        <ele>932.6</ele>
        <time>2009-09-22T12:31:10Z</time>
      </trkpt><trkpt lat="28.3233002" lon="-16.8224155">
        <ele>932.6</ele>
        <time>2009-09-22T12:31:14Z</time>
      </trkpt><trkpt lat="28.3232105" lon="-16.8225448">
        <ele>934.1</ele>
        <time>2009-09-22T12:31:29Z</time>
      </trkpt><trkpt lat="28.3231292" lon="-16.8225916">
        <ele>934.5</ele>
        <time>2009-09-22T12:31:38Z</time>
      </trkpt><trkpt lat="28.3231029" lon="-16.8226144">
        <ele>934.5</ele>
        <time>2009-09-22T12:31:41Z</time>
      </trkpt><trkpt lat="28.3230658" lon="-16.822572">
        <ele>934.5</ele>
        <time>2009-09-22T12:31:46Z</time>
      </trkpt><trkpt lat="28.3230877" lon="-16.8223781">
        <ele>935.5</ele>
        <time>2009-09-22T12:32:04Z</time>
      </trkpt><trkpt lat="28.3230826" lon="-16.8222345">
        <ele>936.5</ele>
        <time>2009-09-22T12:32:16Z</time>
      </trkpt><trkpt lat="28.3230602" lon="-16.8222086">
        <ele>937.4</ele>
        <time>2009-09-22T12:32:19Z</time>
      </trkpt><trkpt lat="28.3229535" lon="-16.822129">
        <ele>937.9</ele>
        <time>2009-09-22T12:32:32Z</time>
      </trkpt><trkpt lat="28.3227818" lon="-16.8220866">
        <ele>938.9</ele>
        <time>2009-09-22T12:32:50Z</time>
      </trkpt><trkpt lat="28.3226308" lon="-16.8219906">
        <ele>940.3</ele>
        <time>2009-09-22T12:33:07Z</time>
      </trkpt><trkpt lat="28.322597" lon="-16.8219839">
        <ele>941.3</ele>
        <time>2009-09-22T12:33:11Z</time>
      </trkpt><trkpt lat="28.3225216" lon="-16.821942">
        <ele>940.8</ele>
        <time>2009-09-22T12:33:19Z</time>
      </trkpt><trkpt lat="28.3223826" lon="-16.8218947">
        <ele>941.7</ele>
        <time>2009-09-22T12:33:34Z</time>
      </trkpt><trkpt lat="28.3222564" lon="-16.8218945">
        <ele>941.7</ele>
        <time>2009-09-22T12:33:46Z</time>
      </trkpt><trkpt lat="28.3221813" lon="-16.8218715">
        <ele>941.7</ele>
        <time>2009-09-22T12:33:54Z</time>
      </trkpt><trkpt lat="28.3220932" lon="-16.8217629">
        <ele>943.7</ele>
        <time>2009-09-22T12:34:07Z</time>
      </trkpt><trkpt lat="28.322087" lon="-16.8217324">
        <ele>943.7</ele>
        <time>2009-09-22T12:34:10Z</time>
      </trkpt><trkpt lat="28.3221137" lon="-16.8215236">
        <ele>944.2</ele>
        <time>2009-09-22T12:34:29Z</time>
      </trkpt><trkpt lat="28.3222015" lon="-16.8214872">
        <ele>944.6</ele>
        <time>2009-09-22T12:34:38Z</time>
      </trkpt><trkpt lat="28.322362" lon="-16.8214862">
        <ele>945.6</ele>
        <time>2009-09-22T12:34:54Z</time>
      </trkpt><trkpt lat="28.3224108" lon="-16.8214929">
        <ele>946.1</ele>
        <time>2009-09-22T12:34:59Z</time>
      </trkpt><trkpt lat="28.3225644" lon="-16.8214677">
        <ele>946.1</ele>
        <time>2009-09-22T12:35:15Z</time>
      </trkpt><trkpt lat="28.3225754" lon="-16.821466">
        <ele>946.1</ele>
        <time>2009-09-22T12:35:16Z</time>
      </trkpt><trkpt lat="28.3227355" lon="-16.8214832">
        <ele>947</ele>
        <time>2009-09-22T12:35:32Z</time>
      </trkpt><trkpt lat="28.3227812" lon="-16.82148">
        <ele>947.5</ele>
        <time>2009-09-22T12:35:37Z</time>
      </trkpt><trkpt lat="28.3229076" lon="-16.8214892">
        <ele>947.5</ele>
        <time>2009-09-22T12:35:49Z</time>
      </trkpt><trkpt lat="28.3229857" lon="-16.8214977">
        <ele>948.5</ele>
        <time>2009-09-22T12:35:57Z</time>
      </trkpt><trkpt lat="28.3230312" lon="-16.8214785">
        <ele>948</ele>
        <time>2009-09-22T12:36:02Z</time>
      </trkpt><trkpt lat="28.3231329" lon="-16.8214582">
        <ele>948</ele>
        <time>2009-09-22T12:36:12Z</time>
      </trkpt><trkpt lat="28.323282" lon="-16.8212203">
        <ele>948.5</ele>
        <time>2009-09-22T12:36:38Z</time>
      </trkpt><trkpt lat="28.3232827" lon="-16.8211082">
        <ele>949</ele>
        <time>2009-09-22T12:36:48Z</time>
      </trkpt><trkpt lat="28.3232435" lon="-16.8209624">
        <ele>949.4</ele>
        <time>2009-09-22T12:37:02Z</time>
      </trkpt><trkpt lat="28.3232324" lon="-16.8209428">
        <ele>949.4</ele>
        <time>2009-09-22T12:37:04Z</time>
      </trkpt><trkpt lat="28.3230998" lon="-16.8208566">
        <ele>950.4</ele>
        <time>2009-09-22T12:37:19Z</time>
      </trkpt><trkpt lat="28.3229635" lon="-16.8208097">
        <ele>950.4</ele>
        <time>2009-09-22T12:37:33Z</time>
      </trkpt><trkpt lat="28.3229008" lon="-16.8207652">
        <ele>951.4</ele>
        <time>2009-09-22T12:37:41Z</time>
      </trkpt><trkpt lat="28.322892" lon="-16.8207278">
        <ele>951.8</ele>
        <time>2009-09-22T12:37:44Z</time>
      </trkpt><trkpt lat="28.3228671" lon="-16.8206965">
        <ele>951.4</ele>
        <time>2009-09-22T12:37:48Z</time>
      </trkpt><trkpt lat="28.3228162" lon="-16.8206153">
        <ele>952.8</ele>
        <time>2009-09-22T12:37:57Z</time>
      </trkpt><trkpt lat="28.3227758" lon="-16.8205253">
        <ele>953.3</ele>
        <time>2009-09-22T12:38:06Z</time>
      </trkpt><trkpt lat="28.3227458" lon="-16.8204153">
        <ele>952.8</ele>
        <time>2009-09-22T12:38:16Z</time>
      </trkpt><trkpt lat="28.3227547" lon="-16.8202927">
        <ele>953.8</ele>
        <time>2009-09-22T12:38:27Z</time>
      </trkpt><trkpt lat="28.3227775" lon="-16.8201467">
        <ele>954.7</ele>
        <time>2009-09-22T12:38:40Z</time>
      </trkpt><trkpt lat="28.3228205" lon="-16.8201192">
        <ele>954.7</ele>
        <time>2009-09-22T12:38:45Z</time>
      </trkpt><trkpt lat="28.322951" lon="-16.8201693">
        <ele>957.1</ele>
        <time>2009-09-22T12:38:58Z</time>
      </trkpt><trkpt lat="28.323036" lon="-16.8201596">
        <ele>957.6</ele>
        <time>2009-09-22T12:39:07Z</time>
      </trkpt><trkpt lat="28.3231209" lon="-16.8201077">
        <ele>958.1</ele>
        <time>2009-09-22T12:39:17Z</time>
      </trkpt><trkpt lat="28.3231741" lon="-16.8200507">
        <ele>958.1</ele>
        <time>2009-09-22T12:39:24Z</time>
      </trkpt><trkpt lat="28.3231568" lon="-16.8199032">
        <ele>958.6</ele>
        <time>2009-09-22T12:39:37Z</time>
      </trkpt><trkpt lat="28.3230402" lon="-16.8198005">
        <ele>959.1</ele>
        <time>2009-09-22T12:39:52Z</time>
      </trkpt><trkpt lat="28.3229412" lon="-16.8196751">
        <ele>959.5</ele>
        <time>2009-09-22T12:40:07Z</time>
      </trkpt><trkpt lat="28.3229433" lon="-16.8196218">
        <ele>959.5</ele>
        <time>2009-09-22T12:40:12Z</time>
      </trkpt><trkpt lat="28.3228748" lon="-16.8194518">
        <ele>961</ele>
        <time>2009-09-22T12:40:28Z</time>
      </trkpt><trkpt lat="28.32285" lon="-16.8194163">
        <ele>961.9</ele>
        <time>2009-09-22T12:40:32Z</time>
      </trkpt><trkpt lat="28.3228427" lon="-16.8193544">
        <ele>961.9</ele>
        <time>2009-09-22T12:40:38Z</time>
      </trkpt><trkpt lat="28.322907" lon="-16.8192102">
        <ele>962.4</ele>
        <time>2009-09-22T12:40:52Z</time>
      </trkpt><trkpt lat="28.323013" lon="-16.819122">
        <ele>963.4</ele>
        <time>2009-09-22T12:41:05Z</time>
      </trkpt><trkpt lat="28.3230312" lon="-16.8191123">
        <ele>963.9</ele>
        <time>2009-09-22T12:41:07Z</time>
      </trkpt><trkpt lat="28.323115" lon="-16.8190127">
        <ele>964.3</ele>
        <time>2009-09-22T12:41:19Z</time>
      </trkpt><trkpt lat="28.3232515" lon="-16.8189327">
        <ele>965.8</ele>
        <time>2009-09-22T12:41:35Z</time>
      </trkpt><trkpt lat="28.323386" lon="-16.8188065">
        <ele>967.7</ele>
        <time>2009-09-22T12:41:52Z</time>
      </trkpt><trkpt lat="28.3234147" lon="-16.8187614">
        <ele>968.2</ele>
        <time>2009-09-22T12:41:57Z</time>
      </trkpt><trkpt lat="28.3233747" lon="-16.8187001">
        <ele>968.2</ele>
        <time>2009-09-22T12:42:04Z</time>
      </trkpt><trkpt lat="28.3232805" lon="-16.818615">
        <ele>968.7</ele>
        <time>2009-09-22T12:42:16Z</time>
      </trkpt><trkpt lat="28.323182" lon="-16.81851">
        <ele>969.1</ele>
        <time>2009-09-22T12:42:30Z</time>
      </trkpt><trkpt lat="28.3231783" lon="-16.8185028">
        <ele>969.6</ele>
        <time>2009-09-22T12:42:30Z</time>
      </trkpt><trkpt lat="28.3231829" lon="-16.8182564">
        <ele>970.1</ele>
        <time>2009-09-22T12:42:52Z</time>
      </trkpt><trkpt lat="28.3231903" lon="-16.8181622">
        <ele>971.5</ele>
        <time>2009-09-22T12:43:00Z</time>
      </trkpt><trkpt lat="28.3232031" lon="-16.8181348">
        <ele>972</ele>
        <time>2009-09-22T12:43:03Z</time>
      </trkpt><trkpt lat="28.3233136" lon="-16.8179927">
        <ele>973</ele>
        <time>2009-09-22T12:43:20Z</time>
      </trkpt><trkpt lat="28.3233652" lon="-16.8178473">
        <ele>973.5</ele>
        <time>2009-09-22T12:43:34Z</time>
      </trkpt><trkpt lat="28.3233671" lon="-16.817815">
        <ele>973.5</ele>
        <time>2009-09-22T12:43:37Z</time>
      </trkpt><trkpt lat="28.3233602" lon="-16.8177154">
        <ele>974</ele>
        <time>2009-09-22T12:43:45Z</time>
      </trkpt><trkpt lat="28.3232945" lon="-16.8175862">
        <ele>974.4</ele>
        <time>2009-09-22T12:43:59Z</time>
      </trkpt><trkpt lat="28.3232782" lon="-16.8175592">
        <ele>974.4</ele>
        <time>2009-09-22T12:44:02Z</time>
      </trkpt><trkpt lat="28.3232596" lon="-16.8175295">
        <ele>974.9</ele>
        <time>2009-09-22T12:44:05Z</time>
      </trkpt><trkpt lat="28.3231415" lon="-16.8173626">
        <ele>975.4</ele>
        <time>2009-09-22T12:44:24Z</time>
      </trkpt><trkpt lat="28.3230632" lon="-16.8172546">
        <ele>975.9</ele>
        <time>2009-09-22T12:44:36Z</time>
      </trkpt><trkpt lat="28.3229807" lon="-16.8171769">
        <ele>975.9</ele>
        <time>2009-09-22T12:44:47Z</time>
      </trkpt><trkpt lat="28.3229469" lon="-16.8171433">
        <ele>975.9</ele>
        <time>2009-09-22T12:44:51Z</time>
      </trkpt><trkpt lat="28.3228664" lon="-16.8170392">
        <ele>976.4</ele>
        <time>2009-09-22T12:45:04Z</time>
      </trkpt><trkpt lat="28.3228162" lon="-16.8169689">
        <ele>976.4</ele>
        <time>2009-09-22T12:45:12Z</time>
      </trkpt><trkpt lat="28.3227374" lon="-16.8169086">
        <ele>976.8</ele>
        <time>2009-09-22T12:45:21Z</time>
      </trkpt><trkpt lat="28.3226542" lon="-16.8168314">
        <ele>976.4</ele>
        <time>2009-09-22T12:45:32Z</time>
      </trkpt><trkpt lat="28.3225185" lon="-16.8166843">
        <ele>976.4</ele>
        <time>2009-09-22T12:45:51Z</time>
      </trkpt><trkpt lat="28.3225147" lon="-16.8166526">
        <ele>976.4</ele>
        <time>2009-09-22T12:45:54Z</time>
      </trkpt><trkpt lat="28.322518" lon="-16.8166186">
        <ele>976.8</ele>
        <time>2009-09-22T12:45:57Z</time>
      </trkpt><trkpt lat="28.3225285" lon="-16.8164635">
        <ele>977.3</ele>
        <time>2009-09-22T12:46:10Z</time>
      </trkpt><trkpt lat="28.322576" lon="-16.8163668">
        <ele>977.3</ele>
        <time>2009-09-22T12:46:20Z</time>
      </trkpt><trkpt lat="28.3227262" lon="-16.816374">
        <ele>978.8</ele>
        <time>2009-09-22T12:46:35Z</time>
      </trkpt><trkpt lat="28.322831" lon="-16.8163934">
        <ele>980.2</ele>
        <time>2009-09-22T12:46:46Z</time>
      </trkpt><trkpt lat="28.3229899" lon="-16.8163657">
        <ele>980.7</ele>
        <time>2009-09-22T12:47:02Z</time>
      </trkpt><trkpt lat="28.323193" lon="-16.8163595">
        <ele>982.1</ele>
        <time>2009-09-22T12:47:22Z</time>
      </trkpt><trkpt lat="28.3232891" lon="-16.816346">
        <ele>982.1</ele>
        <time>2009-09-22T12:47:32Z</time>
      </trkpt><trkpt lat="28.3234172" lon="-16.8163776">
        <ele>983.6</ele>
        <time>2009-09-22T12:47:45Z</time>
      </trkpt><trkpt lat="28.3235424" lon="-16.8163683">
        <ele>983.1</ele>
        <time>2009-09-22T12:47:58Z</time>
      </trkpt><trkpt lat="28.3236715" lon="-16.8163729">
        <ele>983.6</ele>
        <time>2009-09-22T12:48:11Z</time>
      </trkpt><trkpt lat="28.323727" lon="-16.8163397">
        <ele>984</ele>
        <time>2009-09-22T12:48:17Z</time>
      </trkpt><trkpt lat="28.3237503" lon="-16.8162341">
        <ele>983.6</ele>
        <time>2009-09-22T12:48:27Z</time>
      </trkpt><trkpt lat="28.3237629" lon="-16.8162082">
        <ele>984</ele>
        <time>2009-09-22T12:48:29Z</time>
      </trkpt><trkpt lat="28.323741" lon="-16.8160752">
        <ele>985</ele>
        <time>2009-09-22T12:48:41Z</time>
      </trkpt><trkpt lat="28.3237332" lon="-16.8160632">
        <ele>985</ele>
        <time>2009-09-22T12:48:43Z</time>
      </trkpt><trkpt lat="28.3237123" lon="-16.8160207">
        <ele>984.5</ele>
        <time>2009-09-22T12:48:47Z</time>
      </trkpt><trkpt lat="28.3236939" lon="-16.8159747">
        <ele>984.5</ele>
        <time>2009-09-22T12:48:51Z</time>
      </trkpt><trkpt lat="28.3236683" lon="-16.8157889">
        <ele>985.5</ele>
        <time>2009-09-22T12:49:08Z</time>
      </trkpt><trkpt lat="28.3236545" lon="-16.8157606">
        <ele>986</ele>
        <time>2009-09-22T12:49:11Z</time>
      </trkpt><trkpt lat="28.3236545" lon="-16.8156887">
        <ele>985.5</ele>
        <time>2009-09-22T12:49:17Z</time>
      </trkpt><trkpt lat="28.3236463" lon="-16.8155501">
        <ele>986.5</ele>
        <time>2009-09-22T12:49:29Z</time>
      </trkpt><trkpt lat="28.3236378" lon="-16.8153878">
        <ele>986.5</ele>
        <time>2009-09-22T12:49:44Z</time>
      </trkpt><trkpt lat="28.3236291" lon="-16.8153326">
        <ele>987.4</ele>
        <time>2009-09-22T12:49:49Z</time>
      </trkpt><trkpt lat="28.3236462" lon="-16.8152313">
        <ele>987.4</ele>
        <time>2009-09-22T12:49:58Z</time>
      </trkpt><trkpt lat="28.3236058" lon="-16.815013">
        <ele>988.4</ele>
        <time>2009-09-22T12:50:18Z</time>
      </trkpt><trkpt lat="28.3235942" lon="-16.8149449">
        <ele>988.4</ele>
        <time>2009-09-22T12:50:24Z</time>
      </trkpt><trkpt lat="28.3235714" lon="-16.8148068">
        <ele>988.4</ele>
        <time>2009-09-22T12:50:36Z</time>
      </trkpt><trkpt lat="28.3235202" lon="-16.8146294">
        <ele>988.4</ele>
        <time>2009-09-22T12:50:53Z</time>
      </trkpt><trkpt lat="28.3235814" lon="-16.814639">
        <ele>989.3</ele>
        <time>2009-09-22T12:50:59Z</time>
      </trkpt><trkpt lat="28.3236054" lon="-16.8146615">
        <ele>989.3</ele>
        <time>2009-09-22T12:51:02Z</time>
      </trkpt><trkpt lat="28.3237374" lon="-16.8147226">
        <ele>988.9</ele>
        <time>2009-09-22T12:51:16Z</time>
      </trkpt><trkpt lat="28.323829" lon="-16.8147837">
        <ele>989.3</ele>
        <time>2009-09-22T12:51:27Z</time>
      </trkpt><trkpt lat="28.323895" lon="-16.814863">
        <ele>989.3</ele>
        <time>2009-09-22T12:51:37Z</time>
      </trkpt><trkpt lat="28.3239802" lon="-16.8149658">
        <ele>989.3</ele>
        <time>2009-09-22T12:51:49Z</time>
      </trkpt><trkpt lat="28.3240633" lon="-16.8150533">
        <ele>989.3</ele>
        <time>2009-09-22T12:52:00Z</time>
      </trkpt><trkpt lat="28.3241865" lon="-16.8152286">
        <ele>989.3</ele>
        <time>2009-09-22T12:52:20Z</time>
      </trkpt><trkpt lat="28.32423" lon="-16.8153171">
        <ele>988.9</ele>
        <time>2009-09-22T12:52:29Z</time>
      </trkpt><trkpt lat="28.3243089" lon="-16.8153909">
        <ele>989.3</ele>
        <time>2009-09-22T12:52:40Z</time>
      </trkpt><trkpt lat="28.3243791" lon="-16.8154237">
        <ele>989.3</ele>
        <time>2009-09-22T12:52:47Z</time>
      </trkpt><trkpt lat="28.3244101" lon="-16.8154452">
        <ele>988.9</ele>
        <time>2009-09-22T12:52:51Z</time>
      </trkpt><trkpt lat="28.3244642" lon="-16.8154895">
        <ele>987.4</ele>
        <time>2009-09-22T12:52:57Z</time>
      </trkpt><trkpt lat="28.324546" lon="-16.8156343">
        <ele>988.9</ele>
        <time>2009-09-22T12:53:13Z</time>
      </trkpt><trkpt lat="28.3245929" lon="-16.8157155">
        <ele>989.3</ele>
        <time>2009-09-22T12:53:21Z</time>
      </trkpt><trkpt lat="28.32469" lon="-16.8158224">
        <ele>988.9</ele>
        <time>2009-09-22T12:53:35Z</time>
      </trkpt><trkpt lat="28.3247908" lon="-16.8159039">
        <ele>989.8</ele>
        <time>2009-09-22T12:53:47Z</time>
      </trkpt><trkpt lat="28.3249983" lon="-16.8159254">
        <ele>990.8</ele>
        <time>2009-09-22T12:54:08Z</time>
      </trkpt><trkpt lat="28.3251014" lon="-16.8159103">
        <ele>990.8</ele>
        <time>2009-09-22T12:54:19Z</time>
      </trkpt><trkpt lat="28.3251515" lon="-16.8158316">
        <ele>990.8</ele>
        <time>2009-09-22T12:54:27Z</time>
      </trkpt><trkpt lat="28.3251618" lon="-16.8157653">
        <ele>991.7</ele>
        <time>2009-09-22T12:54:33Z</time>
      </trkpt><trkpt lat="28.3251303" lon="-16.815617">
        <ele>992.2</ele>
        <time>2009-09-22T12:54:47Z</time>
      </trkpt><trkpt lat="28.3250571" lon="-16.8155462">
        <ele>992.2</ele>
        <time>2009-09-22T12:54:56Z</time>
      </trkpt><trkpt lat="28.3249117" lon="-16.8154315">
        <ele>993.7</ele>
        <time>2009-09-22T12:55:14Z</time>
      </trkpt><trkpt lat="28.3248491" lon="-16.8153631">
        <ele>994.1</ele>
        <time>2009-09-22T12:55:23Z</time>
      </trkpt><trkpt lat="28.3247889" lon="-16.8152078">
        <ele>996.1</ele>
        <time>2009-09-22T12:55:38Z</time>
      </trkpt><trkpt lat="28.3247312" lon="-16.8150706">
        <ele>997</ele>
        <time>2009-09-22T12:55:51Z</time>
      </trkpt><trkpt lat="28.32472" lon="-16.8149679">
        <ele>997.5</ele>
        <time>2009-09-22T12:56:00Z</time>
      </trkpt><trkpt lat="28.3246501" lon="-16.8147895">
        <ele>998.9</ele>
        <time>2009-09-22T12:56:18Z</time>
      </trkpt><trkpt lat="28.3246336" lon="-16.8147807">
        <ele>999.4</ele>
        <time>2009-09-22T12:56:19Z</time>
      </trkpt><trkpt lat="28.3245473" lon="-16.8146012">
        <ele>1000.9</ele>
        <time>2009-09-22T12:56:37Z</time>
      </trkpt><trkpt lat="28.3245228" lon="-16.8145369">
        <ele>1001.8</ele>
        <time>2009-09-22T12:56:44Z</time>
      </trkpt><trkpt lat="28.3245067" lon="-16.8143998">
        <ele>1001.8</ele>
        <time>2009-09-22T12:56:56Z</time>
      </trkpt><trkpt lat="28.3246082" lon="-16.8142044">
        <ele>1003.3</ele>
        <time>2009-09-22T12:57:16Z</time>
      </trkpt><trkpt lat="28.3246294" lon="-16.8140417">
        <ele>1004.7</ele>
        <time>2009-09-22T12:57:30Z</time>
      </trkpt><trkpt lat="28.3246319" lon="-16.8138782">
        <ele>1006.2</ele>
        <time>2009-09-22T12:57:45Z</time>
      </trkpt><trkpt lat="28.3246029" lon="-16.8137421">
        <ele>1006.6</ele>
        <time>2009-09-22T12:57:57Z</time>
      </trkpt><trkpt lat="28.324566" lon="-16.8136238">
        <ele>1007.1</ele>
        <time>2009-09-22T12:58:08Z</time>
      </trkpt><trkpt lat="28.3246174" lon="-16.8135068">
        <ele>1007.1</ele>
        <time>2009-09-22T12:58:20Z</time>
      </trkpt><trkpt lat="28.3246922" lon="-16.8133462">
        <ele>1008.1</ele>
        <time>2009-09-22T12:58:36Z</time>
      </trkpt><trkpt lat="28.324876" lon="-16.8132724">
        <ele>1010</ele>
        <time>2009-09-22T12:58:56Z</time>
      </trkpt><trkpt lat="28.3249557" lon="-16.8133248">
        <ele>1010.5</ele>
        <time>2009-09-22T12:59:05Z</time>
      </trkpt><trkpt lat="28.3251133" lon="-16.8133559">
        <ele>1011.9</ele>
        <time>2009-09-22T12:59:21Z</time>
      </trkpt><trkpt lat="28.3252697" lon="-16.8133757">
        <ele>1012.4</ele>
        <time>2009-09-22T12:59:37Z</time>
      </trkpt><trkpt lat="28.3253743" lon="-16.8133151">
        <ele>1013.4</ele>
        <time>2009-09-22T12:59:48Z</time>
      </trkpt><trkpt lat="28.3254055" lon="-16.8133084">
        <ele>1013.9</ele>
        <time>2009-09-22T12:59:52Z</time>
      </trkpt><trkpt lat="28.3255847" lon="-16.8131701">
        <ele>1014.3</ele>
        <time>2009-09-22T13:00:13Z</time>
      </trkpt><trkpt lat="28.3256664" lon="-16.8130292">
        <ele>1014.8</ele>
        <time>2009-09-22T13:00:28Z</time>
      </trkpt><trkpt lat="28.3256804" lon="-16.8129872">
        <ele>1014.8</ele>
        <time>2009-09-22T13:00:32Z</time>
      </trkpt><trkpt lat="28.3257763" lon="-16.8128722">
        <ele>1015.3</ele>
        <time>2009-09-22T13:00:46Z</time>
      </trkpt><trkpt lat="28.3259351" lon="-16.8129032">
        <ele>1016.3</ele>
        <time>2009-09-22T13:01:02Z</time>
      </trkpt><trkpt lat="28.3260341" lon="-16.8129818">
        <ele>1017.2</ele>
        <time>2009-09-22T13:01:15Z</time>
      </trkpt><trkpt lat="28.3261361" lon="-16.8130799">
        <ele>1017.2</ele>
        <time>2009-09-22T13:01:28Z</time>
      </trkpt><trkpt lat="28.3261993" lon="-16.8131369">
        <ele>1016.7</ele>
        <time>2009-09-22T13:01:36Z</time>
      </trkpt><trkpt lat="28.3263283" lon="-16.8131126">
        <ele>1017.7</ele>
        <time>2009-09-22T13:01:49Z</time>
      </trkpt><trkpt lat="28.3264777" lon="-16.8130608">
        <ele>1018.2</ele>
        <time>2009-09-22T13:02:05Z</time>
      </trkpt><trkpt lat="28.3266186" lon="-16.8131232">
        <ele>1020.1</ele>
        <time>2009-09-22T13:02:20Z</time>
      </trkpt><trkpt lat="28.3267279" lon="-16.8131965">
        <ele>1020.6</ele>
        <time>2009-09-22T13:02:33Z</time>
      </trkpt><trkpt lat="28.3267492" lon="-16.8132033">
        <ele>1020.6</ele>
        <time>2009-09-22T13:02:35Z</time>
      </trkpt><trkpt lat="28.3268574" lon="-16.8133399">
        <ele>1022.5</ele>
        <time>2009-09-22T13:02:51Z</time>
      </trkpt><trkpt lat="28.3268746" lon="-16.8133626">
        <ele>1022</ele>
        <time>2009-09-22T13:02:54Z</time>
      </trkpt><trkpt lat="28.3269173" lon="-16.8135416">
        <ele>1024.4</ele>
        <time>2009-09-22T13:03:10Z</time>
      </trkpt><trkpt lat="28.3269651" lon="-16.8136094">
        <ele>1024.9</ele>
        <time>2009-09-22T13:03:18Z</time>
      </trkpt><trkpt lat="28.3270826" lon="-16.8137589">
        <ele>1025.4</ele>
        <time>2009-09-22T13:03:36Z</time>
      </trkpt><trkpt lat="28.3271131" lon="-16.8137785">
        <ele>1025.9</ele>
        <time>2009-09-22T13:03:39Z</time>
      </trkpt><trkpt lat="28.3271691" lon="-16.8138056">
        <ele>1025.9</ele>
        <time>2009-09-22T13:03:45Z</time>
      </trkpt><trkpt lat="28.3272765" lon="-16.8138006">
        <ele>1026.8</ele>
        <time>2009-09-22T13:03:56Z</time>
      </trkpt><trkpt lat="28.3273653" lon="-16.8137471">
        <ele>1027.8</ele>
        <time>2009-09-22T13:04:06Z</time>
      </trkpt><trkpt lat="28.327308" lon="-16.8135913">
        <ele>1028.8</ele>
        <time>2009-09-22T13:04:21Z</time>
      </trkpt><trkpt lat="28.327263" lon="-16.8134507">
        <ele>1030.2</ele>
        <time>2009-09-22T13:04:34Z</time>
      </trkpt><trkpt lat="28.3272039" lon="-16.813323">
        <ele>1031.6</ele>
        <time>2009-09-22T13:04:47Z</time>
      </trkpt><trkpt lat="28.3271464" lon="-16.8132058">
        <ele>1032.1</ele>
        <time>2009-09-22T13:04:59Z</time>
      </trkpt><trkpt lat="28.3270925" lon="-16.8130763">
        <ele>1033.1</ele>
        <time>2009-09-22T13:05:12Z</time>
      </trkpt><trkpt lat="28.3270726" lon="-16.8130313">
        <ele>1032.6</ele>
        <time>2009-09-22T13:05:16Z</time>
      </trkpt><trkpt lat="28.3270226" lon="-16.8128482">
        <ele>1033.1</ele>
        <time>2009-09-22T13:05:33Z</time>
      </trkpt><trkpt lat="28.3270102" lon="-16.8128">
        <ele>1032.6</ele>
        <time>2009-09-22T13:05:37Z</time>
      </trkpt><trkpt lat="28.3270195" lon="-16.8126161">
        <ele>1033.6</ele>
        <time>2009-09-22T13:05:54Z</time>
      </trkpt><trkpt lat="28.3270677" lon="-16.8124617">
        <ele>1035</ele>
        <time>2009-09-22T13:06:08Z</time>
      </trkpt><trkpt lat="28.3271055" lon="-16.8123019">
        <ele>1036</ele>
        <time>2009-09-22T13:06:23Z</time>
      </trkpt><trkpt lat="28.3271312" lon="-16.812201">
        <ele>1036.4</ele>
        <time>2009-09-22T13:06:32Z</time>
      </trkpt><trkpt lat="28.3271376" lon="-16.8121922">
        <ele>1036.4</ele>
        <time>2009-09-22T13:06:33Z</time>
      </trkpt><trkpt lat="28.3271681" lon="-16.8120416">
        <ele>1037.4</ele>
        <time>2009-09-22T13:06:47Z</time>
      </trkpt><trkpt lat="28.3273204" lon="-16.8119481">
        <ele>1037.9</ele>
        <time>2009-09-22T13:07:04Z</time>
      </trkpt><trkpt lat="28.3274639" lon="-16.8119733">
        <ele>1038.4</ele>
        <time>2009-09-22T13:07:19Z</time>
      </trkpt><trkpt lat="28.3275675" lon="-16.8119896">
        <ele>1038.8</ele>
        <time>2009-09-22T13:07:29Z</time>
      </trkpt><trkpt lat="28.3276861" lon="-16.8120046">
        <ele>1039.3</ele>
        <time>2009-09-22T13:07:41Z</time>
      </trkpt><trkpt lat="28.3278499" lon="-16.8120128">
        <ele>1040.8</ele>
        <time>2009-09-22T13:07:58Z</time>
      </trkpt><trkpt lat="28.3279597" lon="-16.8119577">
        <ele>1040.3</ele>
        <time>2009-09-22T13:08:10Z</time>
      </trkpt><trkpt lat="28.3280726" lon="-16.8119038">
        <ele>1041.7</ele>
        <time>2009-09-22T13:08:22Z</time>
      </trkpt><trkpt lat="28.3281512" lon="-16.8118176">
        <ele>1042.7</ele>
        <time>2009-09-22T13:08:33Z</time>
      </trkpt><trkpt lat="28.3281563" lon="-16.8116501">
        <ele>1043.2</ele>
        <time>2009-09-22T13:08:48Z</time>
      </trkpt><trkpt lat="28.3281774" lon="-16.8115094">
        <ele>1044.1</ele>
        <time>2009-09-22T13:09:00Z</time>
      </trkpt><trkpt lat="28.3282098" lon="-16.8113677">
        <ele>1045.1</ele>
        <time>2009-09-22T13:09:13Z</time>
      </trkpt><trkpt lat="28.3283408" lon="-16.8112228">
        <ele>1045.1</ele>
        <time>2009-09-22T13:09:32Z</time>
      </trkpt><trkpt lat="28.3284042" lon="-16.8111565">
        <ele>1044.6</ele>
        <time>2009-09-22T13:09:40Z</time>
      </trkpt><trkpt lat="28.3285342" lon="-16.811111">
        <ele>1046.1</ele>
        <time>2009-09-22T13:09:54Z</time>
      </trkpt><trkpt lat="28.3287073" lon="-16.8110218">
        <ele>1046.5</ele>
        <time>2009-09-22T13:10:13Z</time>
      </trkpt><trkpt lat="28.3287396" lon="-16.8110021">
        <ele>1046.5</ele>
        <time>2009-09-22T13:10:17Z</time>
      </trkpt><trkpt lat="28.3288805" lon="-16.8109541">
        <ele>1046.1</ele>
        <time>2009-09-22T13:10:32Z</time>
      </trkpt><trkpt lat="28.3289501" lon="-16.8108246">
        <ele>1048</ele>
        <time>2009-09-22T13:10:45Z</time>
      </trkpt><trkpt lat="28.3290193" lon="-16.8106071">
        <ele>1047.5</ele>
        <time>2009-09-22T13:11:05Z</time>
      </trkpt><trkpt lat="28.329151" lon="-16.8104431">
        <ele>1047</ele>
        <time>2009-09-22T13:11:25Z</time>
      </trkpt><trkpt lat="28.3292441" lon="-16.8103553">
        <ele>1047.5</ele>
        <time>2009-09-22T13:11:37Z</time>
      </trkpt><trkpt lat="28.3292905" lon="-16.8103215">
        <ele>1048</ele>
        <time>2009-09-22T13:11:43Z</time>
      </trkpt><trkpt lat="28.3293361" lon="-16.810189">
        <ele>1048</ele>
        <time>2009-09-22T13:11:55Z</time>
      </trkpt><trkpt lat="28.3292888" lon="-16.8100756">
        <ele>1048.5</ele>
        <time>2009-09-22T13:12:06Z</time>
      </trkpt><trkpt lat="28.3292103" lon="-16.8099444">
        <ele>1046.5</ele>
        <time>2009-09-22T13:12:20Z</time>
      </trkpt><trkpt lat="28.329163" lon="-16.8096746">
        <ele>1045.6</ele>
        <time>2009-09-22T13:12:45Z</time>
      </trkpt><trkpt lat="28.3290559" lon="-16.8094104">
        <ele>1045.1</ele>
        <time>2009-09-22T13:13:10Z</time>
      </trkpt><trkpt lat="28.3289882" lon="-16.8091758">
        <ele>1044.6</ele>
        <time>2009-09-22T13:13:32Z</time>
      </trkpt><trkpt lat="28.3289243" lon="-16.8089474">
        <ele>1045.6</ele>
        <time>2009-09-22T13:13:53Z</time>
      </trkpt><trkpt lat="28.3287159" lon="-16.808982">
        <ele>1043.7</ele>
        <time>2009-09-22T13:14:15Z</time>
      </trkpt><trkpt lat="28.3285579" lon="-16.8090559">
        <ele>1042.2</ele>
        <time>2009-09-22T13:14:32Z</time>
      </trkpt><trkpt lat="28.3282803" lon="-16.8091488">
        <ele>1042.7</ele>
        <time>2009-09-22T13:15:01Z</time>
      </trkpt><trkpt lat="28.3279962" lon="-16.8091722">
        <ele>1042.7</ele>
        <time>2009-09-22T13:15:29Z</time>
      </trkpt><trkpt lat="28.3277383" lon="-16.8091876">
        <ele>1043.7</ele>
        <time>2009-09-22T13:15:55Z</time>
      </trkpt><trkpt lat="28.3275472" lon="-16.8091612">
        <ele>1042.2</ele>
        <time>2009-09-22T13:16:15Z</time>
      </trkpt><trkpt lat="28.3275256" lon="-16.8091462">
        <ele>1043.7</ele>
        <time>2009-09-22T13:16:17Z</time>
      </trkpt><trkpt lat="28.327428" lon="-16.8091602">
        <ele>1041.7</ele>
        <time>2009-09-22T13:16:27Z</time>
      </trkpt><trkpt lat="28.3272871" lon="-16.8092068">
        <ele>1038.8</ele>
        <time>2009-09-22T13:16:42Z</time>
      </trkpt><trkpt lat="28.3271235" lon="-16.8092516">
        <ele>1037.9</ele>
        <time>2009-09-22T13:16:59Z</time>
      </trkpt><trkpt lat="28.3269522" lon="-16.8092926">
        <ele>1036.4</ele>
        <time>2009-09-22T13:17:16Z</time>
      </trkpt><trkpt lat="28.3268005" lon="-16.8094627">
        <ele>1033.6</ele>
        <time>2009-09-22T13:17:38Z</time>
      </trkpt><trkpt lat="28.3266952" lon="-16.8096212">
        <ele>1032.1</ele>
        <time>2009-09-22T13:17:55Z</time>
      </trkpt><trkpt lat="28.326632" lon="-16.8095918">
        <ele>1032.1</ele>
        <time>2009-09-22T13:18:02Z</time>
      </trkpt><trkpt lat="28.3266014" lon="-16.8095751">
        <ele>1033.1</ele>
        <time>2009-09-22T13:18:05Z</time>
      </trkpt><trkpt lat="28.3265982" lon="-16.8095751">
        <ele>1033.1</ele>
        <time>2009-09-22T13:18:06Z</time>
      </trkpt><trkpt lat="28.3264735" lon="-16.80957">
        <ele>1032.1</ele>
        <time>2009-09-22T13:18:18Z</time>
      </trkpt><trkpt lat="28.3264159" lon="-16.8095984">
        <ele>1031.6</ele>
        <time>2009-09-22T13:18:24Z</time>
      </trkpt><trkpt lat="28.3263526" lon="-16.8096479">
        <ele>1031.2</ele>
        <time>2009-09-22T13:18:32Z</time>
      </trkpt><trkpt lat="28.3262875" lon="-16.8096726">
        <ele>1030.7</ele>
        <time>2009-09-22T13:18:39Z</time>
      </trkpt><trkpt lat="28.3260668" lon="-16.8096857">
        <ele>1028.8</ele>
        <time>2009-09-22T13:19:01Z</time>
      </trkpt><trkpt lat="28.3260544" lon="-16.8096842">
        <ele>1028.8</ele>
        <time>2009-09-22T13:19:02Z</time>
      </trkpt><trkpt lat="28.3259312" lon="-16.8096285">
        <ele>1027.8</ele>
        <time>2009-09-22T13:19:16Z</time>
      </trkpt><trkpt lat="28.3258876" lon="-16.8095694">
        <ele>1027.8</ele>
        <time>2009-09-22T13:19:23Z</time>
      </trkpt><trkpt lat="28.3258377" lon="-16.8093701">
        <ele>1026.3</ele>
        <time>2009-09-22T13:19:41Z</time>
      </trkpt><trkpt lat="28.3257984" lon="-16.8092182">
        <ele>1025.9</ele>
        <time>2009-09-22T13:19:55Z</time>
      </trkpt><trkpt lat="28.3257298" lon="-16.8090245">
        <ele>1023.9</ele>
        <time>2009-09-22T13:20:13Z</time>
      </trkpt><trkpt lat="28.3255214" lon="-16.8088969">
        <ele>1023</ele>
        <time>2009-09-22T13:20:37Z</time>
      </trkpt><trkpt lat="28.3254091" lon="-16.8088815">
        <ele>1022.5</ele>
        <time>2009-09-22T13:20:49Z</time>
      </trkpt><trkpt lat="28.3253276" lon="-16.8088859">
        <ele>1022</ele>
        <time>2009-09-22T13:20:57Z</time>
      </trkpt><trkpt lat="28.3251245" lon="-16.80896">
        <ele>1019.6</ele>
        <time>2009-09-22T13:21:18Z</time>
      </trkpt><trkpt lat="28.3249511" lon="-16.808896">
        <ele>1018.2</ele>
        <time>2009-09-22T13:21:36Z</time>
      </trkpt><trkpt lat="28.3249428" lon="-16.8088332">
        <ele>1018.7</ele>
        <time>2009-09-22T13:21:42Z</time>
      </trkpt><trkpt lat="28.3250379" lon="-16.8086576">
        <ele>1019.6</ele>
        <time>2009-09-22T13:22:00Z</time>
      </trkpt><trkpt lat="28.3251903" lon="-16.8085157">
        <ele>1021.5</ele>
        <time>2009-09-22T13:22:20Z</time>
      </trkpt><trkpt lat="28.3253426" lon="-16.8084496">
        <ele>1022</ele>
        <time>2009-09-22T13:22:36Z</time>
      </trkpt><trkpt lat="28.3255556" lon="-16.8084022">
        <ele>1024.4</ele>
        <time>2009-09-22T13:22:58Z</time>
      </trkpt><trkpt lat="28.3256894" lon="-16.808366">
        <ele>1025.9</ele>
        <time>2009-09-22T13:23:12Z</time>
      </trkpt><trkpt lat="28.325798" lon="-16.8082882">
        <ele>1026.3</ele>
        <time>2009-09-22T13:23:25Z</time>
      </trkpt><trkpt lat="28.3257861" lon="-16.8080538">
        <ele>1026.8</ele>
        <time>2009-09-22T13:23:46Z</time>
      </trkpt><trkpt lat="28.3257757" lon="-16.8078112">
        <ele>1026.8</ele>
        <time>2009-09-22T13:24:07Z</time>
      </trkpt><trkpt lat="28.3258022" lon="-16.8074694">
        <ele>1027.3</ele>
        <time>2009-09-22T13:24:37Z</time>
      </trkpt><trkpt lat="28.3257467" lon="-16.8071579">
        <ele>1028.8</ele>
        <time>2009-09-22T13:25:05Z</time>
      </trkpt><trkpt lat="28.3258317" lon="-16.8069739">
        <ele>1028.8</ele>
        <time>2009-09-22T13:25:24Z</time>
      </trkpt><trkpt lat="28.3260239" lon="-16.806897">
        <ele>1028.3</ele>
        <time>2009-09-22T13:25:44Z</time>
      </trkpt><trkpt lat="28.3261859" lon="-16.8068374">
        <ele>1026.3</ele>
        <time>2009-09-22T13:26:01Z</time>
      </trkpt><trkpt lat="28.3264557" lon="-16.806717">
        <ele>1026.8</ele>
        <time>2009-09-22T13:26:30Z</time>
      </trkpt><trkpt lat="28.3265901" lon="-16.8066179">
        <ele>1025.4</ele>
        <time>2009-09-22T13:26:47Z</time>
      </trkpt><trkpt lat="28.3267142" lon="-16.8063276">
        <ele>1023</ele>
        <time>2009-09-22T13:27:15Z</time>
      </trkpt><trkpt lat="28.3268105" lon="-16.806049">
        <ele>1021.5</ele>
        <time>2009-09-22T13:27:42Z</time>
      </trkpt><trkpt lat="28.3268235" lon="-16.8060401">
        <ele>1021.5</ele>
        <time>2009-09-22T13:27:43Z</time>
      </trkpt><trkpt lat="28.3270159" lon="-16.8057877">
        <ele>1020.1</ele>
        <time>2009-09-22T13:28:13Z</time>
      </trkpt><trkpt lat="28.327121" lon="-16.805653">
        <ele>1019.6</ele>
        <time>2009-09-22T13:28:29Z</time>
      </trkpt><trkpt lat="28.3271423" lon="-16.8056237">
        <ele>1018.7</ele>
        <time>2009-09-22T13:28:32Z</time>
      </trkpt><trkpt lat="28.3278679" lon="-16.8051389">
        <ele>0</ele>
        <time>2009-09-22T13:29:56Z</time>
      </trkpt><trkpt lat="28.3279132" lon="-16.8052253">
        <ele>1014.8</ele>
        <time>2009-09-22T13:30:05Z</time>
      </trkpt><trkpt lat="28.3281255" lon="-16.8058677">
        <ele>1008.6</ele>
        <time>2009-09-22T13:31:06Z</time>
      </trkpt><trkpt lat="28.328378" lon="-16.8059075">
        <ele>1001.4</ele>
        <time>2009-09-22T13:31:31Z</time>
      </trkpt><trkpt lat="28.3290774" lon="-16.8058786">
        <ele>998.9</ele>
        <time>2009-09-22T13:32:42Z</time>
      </trkpt><trkpt lat="28.3291866" lon="-16.805924">
        <ele>993.7</ele>
        <time>2009-09-22T13:32:53Z</time>
      </trkpt><trkpt lat="28.3293132" lon="-16.8061257">
        <ele>988.4</ele>
        <time>2009-09-22T13:33:15Z</time>
      </trkpt><trkpt lat="28.3291763" lon="-16.8061384">
        <ele>985</ele>
        <time>2009-09-22T13:33:29Z</time>
      </trkpt><trkpt lat="28.3292304" lon="-16.806235">
        <ele>982.1</ele>
        <time>2009-09-22T13:33:39Z</time>
      </trkpt><trkpt lat="28.3294733" lon="-16.8064624">
        <ele>975.4</ele>
        <time>2009-09-22T13:34:11Z</time>
      </trkpt><trkpt lat="28.3295257" lon="-16.8066336">
        <ele>972</ele>
        <time>2009-09-22T13:34:27Z</time>
      </trkpt><trkpt lat="28.3297194" lon="-16.8068507">
        <ele>967.2</ele>
        <time>2009-09-22T13:34:54Z</time>
      </trkpt><trkpt lat="28.3303073" lon="-16.8067483">
        <ele>956.6</ele>
        <time>2009-09-22T13:35:54Z</time>
      </trkpt><trkpt lat="28.3306237" lon="-16.8069045">
        <ele>945.1</ele>
        <time>2009-09-22T13:36:28Z</time>
      </trkpt><trkpt lat="28.3310916" lon="-16.8069177">
        <ele>931.2</ele>
        <time>2009-09-22T13:37:15Z</time>
      </trkpt><trkpt lat="28.3312356" lon="-16.8068391">
        <ele>928.8</ele>
        <time>2009-09-22T13:37:31Z</time>
      </trkpt><trkpt lat="28.3318525" lon="-16.8067627">
        <ele>916.3</ele>
        <time>2009-09-22T13:38:34Z</time>
      </trkpt><trkpt lat="28.3323903" lon="-16.8064412">
        <ele>909.1</ele>
        <time>2009-09-22T13:39:35Z</time>
      </trkpt><trkpt lat="28.332573" lon="-16.8064099">
        <ele>905.7</ele>
        <time>2009-09-22T13:39:53Z</time>
      </trkpt><trkpt lat="28.3329096" lon="-16.8065182">
        <ele>897.5</ele>
        <time>2009-09-22T13:40:28Z</time>
      </trkpt><trkpt lat="28.3335988" lon="-16.8071374">
        <ele>875.9</ele>
        <time>2009-09-22T13:41:57Z</time>
      </trkpt><trkpt lat="28.3341277" lon="-16.8070771">
        <ele>864.8</ele>
        <time>2009-09-22T13:42:50Z</time>
      </trkpt><trkpt lat="28.3342766" lon="-16.8069577">
        <ele>860</ele>
        <time>2009-09-22T13:43:08Z</time>
      </trkpt><trkpt lat="28.3344812" lon="-16.8068819">
        <ele>855.7</ele>
        <time>2009-09-22T13:43:30Z</time>
      </trkpt><trkpt lat="28.3351223" lon="-16.8068921">
        <ele>840.8</ele>
        <time>2009-09-22T13:44:34Z</time>
      </trkpt><trkpt lat="28.3350945" lon="-16.8070669">
        <ele>837.9</ele>
        <time>2009-09-22T13:44:50Z</time>
      </trkpt><trkpt lat="28.3352109" lon="-16.8070577">
        <ele>835</ele>
        <time>2009-09-22T13:45:02Z</time>
      </trkpt><trkpt lat="28.3353537" lon="-16.8072952">
        <ele>825.9</ele>
        <time>2009-09-22T13:45:27Z</time>
      </trkpt><trkpt lat="28.3353219" lon="-16.8072219">
        <ele>822.5</ele>
        <time>2009-09-22T13:45:34Z</time>
      </trkpt><trkpt lat="28.3355502" lon="-16.8072803">
        <ele>820.1</ele>
        <time>2009-09-22T13:45:58Z</time>
      </trkpt><trkpt lat="28.3355298" lon="-16.8074015">
        <ele>818.7</ele>
        <time>2009-09-22T13:46:09Z</time>
      </trkpt><trkpt lat="28.3358946" lon="-16.8076183">
        <ele>801.9</ele>
        <time>2009-09-22T13:46:50Z</time>
      </trkpt><trkpt lat="28.3363775" lon="-16.8081726">
        <ele>784.6</ele>
        <time>2009-09-22T13:47:59Z</time>
      </trkpt><trkpt lat="28.3368151" lon="-16.8083951">
        <ele>774.5</ele>
        <time>2009-09-22T13:48:47Z</time>
      </trkpt><trkpt lat="28.3368946" lon="-16.8085551">
        <ele>772.6</ele>
        <time>2009-09-22T13:49:03Z</time>
      </trkpt><trkpt lat="28.3371402" lon="-16.8086502">
        <ele>763.4</ele>
        <time>2009-09-22T13:49:29Z</time>
      </trkpt><trkpt lat="28.337192" lon="-16.8087307">
        <ele>760.5</ele>
        <time>2009-09-22T13:49:38Z</time>
      </trkpt><trkpt lat="28.3372433" lon="-16.8087017">
        <ele>758.1</ele>
        <time>2009-09-22T13:49:44Z</time>
      </trkpt><trkpt lat="28.3375209" lon="-16.8089934">
        <ele>745.2</ele>
        <time>2009-09-22T13:50:22Z</time>
      </trkpt><trkpt lat="28.3377193" lon="-16.8093201">
        <ele>737.9</ele>
        <time>2009-09-22T13:50:57Z</time>
      </trkpt><trkpt lat="28.3380931" lon="-16.8095186">
        <ele>727.9</ele>
        <time>2009-09-22T13:51:38Z</time>
      </trkpt><trkpt lat="28.3381593" lon="-16.8096771">
        <ele>721.6</ele>
        <time>2009-09-22T13:51:54Z</time>
      </trkpt><trkpt lat="28.3383303" lon="-16.8097164">
        <ele>718.7</ele>
        <time>2009-09-22T13:52:11Z</time>
      </trkpt><trkpt lat="28.3384098" lon="-16.8096231">
        <ele>717.8</ele>
        <time>2009-09-22T13:52:23Z</time>
      </trkpt><trkpt lat="28.3387002" lon="-16.8096912">
        <ele>709.1</ele>
        <time>2009-09-22T13:52:53Z</time>
      </trkpt><trkpt lat="28.3395332" lon="-16.8101698">
        <ele>689.9</ele>
        <time>2009-09-22T13:54:26Z</time>
      </trkpt><trkpt lat="28.339919" lon="-16.8099538">
        <ele>677.9</ele>
        <time>2009-09-22T13:55:09Z</time>
      </trkpt><trkpt lat="28.3402401" lon="-16.8100164">
        <ele>669.2</ele>
        <time>2009-09-22T13:55:42Z</time>
      </trkpt><trkpt lat="28.340458" lon="-16.8100048">
        <ele>668.3</ele>
        <time>2009-09-22T13:56:04Z</time>
      </trkpt><trkpt lat="28.3406592" lon="-16.8099763">
        <ele>659.6</ele>
        <time>2009-09-22T13:56:24Z</time>
      </trkpt><trkpt lat="28.3407561" lon="-16.8101201">
        <ele>652.4</ele>
        <time>2009-09-22T13:56:40Z</time>
      </trkpt><trkpt lat="28.3411568" lon="-16.8101875">
        <ele>638.5</ele>
        <time>2009-09-22T13:57:21Z</time>
      </trkpt><trkpt lat="28.3416712" lon="-16.8105162">
        <ele>623.1</ele>
        <time>2009-09-22T13:58:20Z</time>
      </trkpt><trkpt lat="28.3421211" lon="-16.810333">
        <ele>613.5</ele>
        <time>2009-09-22T13:59:08Z</time>
      </trkpt><trkpt lat="28.3421609" lon="-16.81012">
        <ele>605.8</ele>
        <time>2009-09-22T13:59:28Z</time>
      </trkpt><trkpt lat="28.3424177" lon="-16.8101949">
        <ele>600.5</ele>
        <time>2009-09-22T13:59:54Z</time>
      </trkpt><trkpt lat="28.342713" lon="-16.8103774">
        <ele>594.2</ele>
        <time>2009-09-22T14:00:28Z</time>
      </trkpt><trkpt lat="28.3429587" lon="-16.8107106">
        <ele>582.7</ele>
        <time>2009-09-22T14:01:06Z</time>
      </trkpt><trkpt lat="28.3430101" lon="-16.810902">
        <ele>578.9</ele>
        <time>2009-09-22T14:01:24Z</time>
      </trkpt><trkpt lat="28.343004" lon="-16.8112969">
        <ele>570.2</ele>
        <time>2009-09-22T14:01:59Z</time>
      </trkpt><trkpt lat="28.3428597" lon="-16.8116837">
        <ele>564.4</ele>
        <time>2009-09-22T14:02:36Z</time>
      </trkpt><trkpt lat="28.3429509" lon="-16.812133">
        <ele>557.2</ele>
        <time>2009-09-22T14:03:17Z</time>
      </trkpt><trkpt lat="28.34322" lon="-16.8124324">
        <ele>551.5</ele>
        <time>2009-09-22T14:03:55Z</time>
      </trkpt><trkpt lat="28.3440193" lon="-16.8128075">
        <ele>539.9</ele>
        <time>2009-09-22T14:05:21Z</time>
      </trkpt><trkpt lat="28.3449754" lon="-16.8131307">
        <ele>526</ele>
        <time>2009-09-22T14:07:01Z</time>
      </trkpt><trkpt lat="28.3453287" lon="-16.81308">
        <ele>520.2</ele>
        <time>2009-09-22T14:07:37Z</time>
      </trkpt><trkpt lat="28.3455597" lon="-16.8131186">
        <ele>514.9</ele>
        <time>2009-09-22T14:08:01Z</time>
      </trkpt><trkpt lat="28.3457117" lon="-16.8130236">
        <ele>513.5</ele>
        <time>2009-09-22T14:08:18Z</time>
      </trkpt><trkpt lat="28.34642" lon="-16.8130887">
        <ele>503.9</ele>
        <time>2009-09-22T14:09:29Z</time>
      </trkpt><trkpt lat="28.3467883" lon="-16.8130555">
        <ele>495.2</ele>
        <time>2009-09-22T14:10:07Z</time>
      </trkpt><trkpt lat="28.3468385" lon="-16.8129679">
        <ele>492.3</ele>
        <time>2009-09-22T14:10:16Z</time>
      </trkpt><trkpt lat="28.3472675" lon="-16.8128205">
        <ele>490.4</ele>
        <time>2009-09-22T14:11:01Z</time>
      </trkpt><trkpt lat="28.3477477" lon="-16.812849">
        <ele>481.3</ele>
        <time>2009-09-22T14:11:49Z</time>
      </trkpt><trkpt lat="28.3478848" lon="-16.8129148">
        <ele>477.4</ele>
        <time>2009-09-22T14:12:04Z</time>
      </trkpt><trkpt lat="28.3479895" lon="-16.8128764">
        <ele>476.5</ele>
        <time>2009-09-22T14:12:15Z</time>
      </trkpt><trkpt lat="28.3487775" lon="-16.8132648">
        <ele>452.9</ele>
        <time>2009-09-22T14:13:41Z</time>
      </trkpt><trkpt lat="28.3488698" lon="-16.8132598">
        <ele>450</ele>
        <time>2009-09-22T14:13:51Z</time>
      </trkpt><trkpt lat="28.3488094" lon="-16.8131491">
        <ele>452.4</ele>
        <time>2009-09-22T14:14:02Z</time>
      </trkpt><trkpt lat="28.3488667" lon="-16.8133313">
        <ele>455.3</ele>
        <time>2009-09-22T14:14:19Z</time>
      </trkpt><trkpt lat="28.3489737" lon="-16.8132121">
        <ele>452</ele>
        <time>2009-09-22T14:14:34Z</time>
      </trkpt><trkpt lat="28.3492271" lon="-16.8130862">
        <ele>444.3</ele>
        <time>2009-09-22T14:15:02Z</time>
      </trkpt><trkpt lat="28.3493281" lon="-16.8128747">
        <ele>441.9</ele>
        <time>2009-09-22T14:15:23Z</time>
      </trkpt><trkpt lat="28.3496747" lon="-16.8130473">
        <ele>431.3</ele>
        <time>2009-09-22T14:16:01Z</time>
      </trkpt><trkpt lat="28.3501532" lon="-16.8131541">
        <ele>422.2</ele>
        <time>2009-09-22T14:16:50Z</time>
      </trkpt><trkpt lat="28.3503927" lon="-16.813011">
        <ele>408.7</ele>
        <time>2009-09-22T14:17:17Z</time>
      </trkpt><trkpt lat="28.3504245" lon="-16.8132173">
        <ele>405.3</ele>
        <time>2009-09-22T14:17:36Z</time>
      </trkpt><trkpt lat="28.3502182" lon="-16.8143515">
        <ele>404.4</ele>
        <time>2009-09-22T14:19:18Z</time>
      </trkpt><trkpt lat="28.349964" lon="-16.8144195">
        <ele>405.8</ele>
        <time>2009-09-22T14:19:44Z</time>
      </trkpt><trkpt lat="28.3499036" lon="-16.814377">
        <ele>404.4</ele>
        <time>2009-09-22T14:19:51Z</time>
      </trkpt><trkpt lat="28.3502225" lon="-16.8140376">
        <ele>394.8</ele>
        <time>2009-09-22T14:20:35Z</time>
      </trkpt><trkpt lat="28.350309" lon="-16.8140492">
        <ele>392.4</ele>
        <time>2009-09-22T14:20:44Z</time>
      </trkpt><trkpt lat="28.3505312" lon="-16.8139137">
        <ele>387.1</ele>
        <time>2009-09-22T14:21:09Z</time>
      </trkpt><trkpt lat="28.3507015" lon="-16.8137052">
        <ele>386.1</ele>
        <time>2009-09-22T14:21:35Z</time>
      </trkpt><trkpt lat="28.350837" lon="-16.8138293">
        <ele>378.4</ele>
        <time>2009-09-22T14:21:52Z</time>
      </trkpt><trkpt lat="28.3512054" lon="-16.8139134">
        <ele>368.8</ele>
        <time>2009-09-22T14:22:30Z</time>
      </trkpt><trkpt lat="28.3515616" lon="-16.8141481">
        <ele>363.5</ele>
        <time>2009-09-22T14:23:11Z</time>
      </trkpt><trkpt lat="28.3518038" lon="-16.8141614">
        <ele>355.8</ele>
        <time>2009-09-22T14:23:35Z</time>
      </trkpt><trkpt lat="28.3518519" lon="-16.8143091">
        <ele>349.1</ele>
        <time>2009-09-22T14:23:49Z</time>
      </trkpt><trkpt lat="28.3519719" lon="-16.8143523">
        <ele>345.3</ele>
        <time>2009-09-22T14:24:02Z</time>
      </trkpt><trkpt lat="28.3518622" lon="-16.8144393">
        <ele>340.9</ele>
        <time>2009-09-22T14:24:15Z</time>
      </trkpt><trkpt lat="28.351868" lon="-16.814297">
        <ele>337.1</ele>
        <time>2009-09-22T14:24:28Z</time>
      </trkpt><trkpt lat="28.3518143" lon="-16.8143454">
        <ele>335.6</ele>
        <time>2009-09-22T14:24:35Z</time>
      </trkpt><trkpt lat="28.3518543" lon="-16.8144709">
        <ele>332.3</ele>
        <time>2009-09-22T14:24:47Z</time>
      </trkpt><trkpt lat="28.352" lon="-16.8144093">
        <ele>328.4</ele>
        <time>2009-09-22T14:25:02Z</time>
      </trkpt><trkpt lat="28.3520491" lon="-16.8144497">
        <ele>326.5</ele>
        <time>2009-09-22T14:25:08Z</time>
      </trkpt><trkpt lat="28.3520041" lon="-16.8145129">
        <ele>323.6</ele>
        <time>2009-09-22T14:25:15Z</time>
      </trkpt><trkpt lat="28.3521667" lon="-16.8145858">
        <ele>317.4</ele>
        <time>2009-09-22T14:25:33Z</time>
      </trkpt><trkpt lat="28.352073" lon="-16.8144443">
        <ele>314</ele>
        <time>2009-09-22T14:25:49Z</time>
      </trkpt><trkpt lat="28.352122" lon="-16.8143852">
        <ele>311.1</ele>
        <time>2009-09-22T14:25:56Z</time>
      </trkpt><trkpt lat="28.3521232" lon="-16.814496">
        <ele>307.8</ele>
        <time>2009-09-22T14:26:06Z</time>
      </trkpt><trkpt lat="28.3522159" lon="-16.8143258">
        <ele>297.7</ele>
        <time>2009-09-22T14:26:23Z</time>
      </trkpt><trkpt lat="28.3523341" lon="-16.814455">
        <ele>291.9</ele>
        <time>2009-09-22T14:26:40Z</time>
      </trkpt><trkpt lat="28.3523367" lon="-16.8145924">
        <ele>287.1</ele>
        <time>2009-09-22T14:26:52Z</time>
      </trkpt><trkpt lat="28.3523527" lon="-16.814338">
        <ele>284.2</ele>
        <time>2009-09-22T14:27:14Z</time>
      </trkpt><trkpt lat="28.352447" lon="-16.8142504">
        <ele>278.4</ele>
        <time>2009-09-22T14:27:27Z</time>
      </trkpt><trkpt lat="28.3524087" lon="-16.8141748">
        <ele>275.6</ele>
        <time>2009-09-22T14:27:34Z</time>
      </trkpt><trkpt lat="28.3528335" lon="-16.8140709">
        <ele>262.6</ele>
        <time>2009-09-22T14:28:18Z</time>
      </trkpt><trkpt lat="28.3528262" lon="-16.8141818">
        <ele>256.8</ele>
        <time>2009-09-22T14:28:28Z</time>
      </trkpt><trkpt lat="28.3535514" lon="-16.8138844">
        <ele>237.1</ele>
        <time>2009-09-22T14:29:45Z</time>
      </trkpt><trkpt lat="28.353924" lon="-16.8140334">
        <ele>228.5</ele>
        <time>2009-09-22T14:30:25Z</time>
      </trkpt><trkpt lat="28.3540555" lon="-16.814018">
        <ele>228.5</ele>
        <time>2009-09-22T14:30:38Z</time>
      </trkpt><trkpt lat="28.3541123" lon="-16.8139555">
        <ele>227</ele>
        <time>2009-09-22T14:30:46Z</time>
      </trkpt><trkpt lat="28.354017" lon="-16.8137276">
        <ele>227.5</ele>
        <time>2009-09-22T14:31:08Z</time>
      </trkpt><trkpt lat="28.3541842" lon="-16.8137156">
        <ele>227</ele>
        <time>2009-09-22T14:31:25Z</time>
      </trkpt><trkpt lat="28.3542573" lon="-16.8135239">
        <ele>224.1</ele>
        <time>2009-09-22T14:31:44Z</time>
      </trkpt><trkpt lat="28.3544041" lon="-16.8134788">
        <ele>222.7</ele>
        <time>2009-09-22T14:31:59Z</time>
      </trkpt><trkpt lat="28.3547661" lon="-16.8136356">
        <ele>219.8</ele>
        <time>2009-09-22T14:32:38Z</time>
      </trkpt><trkpt lat="28.3552971" lon="-16.8136777">
        <ele>212.6</ele>
        <time>2009-09-22T14:33:31Z</time>
      </trkpt><trkpt lat="28.3564407" lon="-16.8135534">
        <ele>201.1</ele>
        <time>2009-09-22T14:35:27Z</time>
      </trkpt><trkpt lat="28.3568417" lon="-16.8136236">
        <ele>198.7</ele>
        <time>2009-09-22T14:36:07Z</time>
      </trkpt><trkpt lat="28.3576702" lon="-16.813597">
        <ele>189</ele>
        <time>2009-09-22T14:37:30Z</time>
      </trkpt><trkpt lat="28.3585223" lon="-16.8139554">
        <ele>178.5</ele>
        <time>2009-09-22T14:39:02Z</time>
      </trkpt><trkpt lat="28.3586875" lon="-16.8138248">
        <ele>171.7</ele>
        <time>2009-09-22T14:39:22Z</time>
      </trkpt><trkpt lat="28.3586678" lon="-16.813632">
        <ele>168.8</ele>
        <time>2009-09-22T14:39:39Z</time>
      </trkpt><trkpt lat="28.3587973" lon="-16.8135275">
        <ele>166.4</ele>
        <time>2009-09-22T14:39:55Z</time>
      </trkpt><trkpt lat="28.3593405" lon="-16.8136732">
        <ele>160.2</ele>
        <time>2009-09-22T14:40:51Z</time>
      </trkpt><trkpt lat="28.3593755" lon="-16.813761">
        <ele>159.2</ele>
        <time>2009-09-22T14:41:00Z</time>
      </trkpt><trkpt lat="28.359521" lon="-16.8138477">
        <ele>157.3</ele>
        <time>2009-09-22T14:41:16Z</time>
      </trkpt><trkpt lat="28.3596966" lon="-16.8142157">
        <ele>155.9</ele>
        <time>2009-09-22T14:41:53Z</time>
      </trkpt><trkpt lat="28.3602445" lon="-16.8140272">
        <ele>149.1</ele>
        <time>2009-09-22T14:42:50Z</time>
      </trkpt><trkpt lat="28.3605293" lon="-16.8140441">
        <ele>146.7</ele>
        <time>2009-09-22T14:43:19Z</time>
      </trkpt><trkpt lat="28.361277" lon="-16.8146195">
        <ele>145.8</ele>
        <time>2009-09-22T14:44:50Z</time>
      </trkpt><trkpt lat="28.3625599" lon="-16.8152837">
        <ele>139.5</ele>
        <time>2009-09-22T14:47:11Z</time>
      </trkpt><trkpt lat="28.3630138" lon="-16.815653">
        <ele>137.1</ele>
        <time>2009-09-22T14:48:07Z</time>
      </trkpt><trkpt lat="28.3639825" lon="-16.8166645">
        <ele>130.9</ele>
        <time>2009-09-22T14:50:19Z</time>
      </trkpt><trkpt lat="28.3644218" lon="-16.8168082">
        <ele>128.5</ele>
        <time>2009-09-22T14:51:05Z</time>
      </trkpt><trkpt lat="28.3645396" lon="-16.8168033">
        <ele>127.5</ele>
        <time>2009-09-22T14:51:17Z</time>
      </trkpt></trkseg>
  </trk>
</gpx>